Wetterdaten: Mittwoch, 04.02.2026
Datum Zeit Temp. Aussen Temp. o. S. Temp +5cm Feuchte Auss Luftdruck Regen Sonnenschein Regendauer Solar Windböen Empfang
04.02.2026 00:00 3,1 °C 2,2 °C -1,1 °C 97 % 999,6 hPa 0,0 l/m² 0 min 0 min 0 W/m² 12,9 km/h (3 Bft) 97,87 %
04.02.2026 00:02 3,1 °C 2,2 °C -1,1 °C 97 % 999,6 hPa 0,0 l/m² 0 min 0 min 0 W/m² 16,1 km/h (3 Bft) 97,56 %
04.02.2026 00:04 3,1 °C 2,2 °C -1,1 °C 97 % 999,7 hPa 0,0 l/m² 0 min 0 min 0 W/m² 12,9 km/h (3 Bft) 95,92 %
04.02.2026 00:07 3,1 °C 2,8 °C -1,1 °C 97 % 999,7 hPa 0,0 l/m² 0 min 0 min 0 W/m² 9,7 km/h (2 Bft) 95,71 %
04.02.2026 00:08 3,1 °C 2,8 °C -1,1 °C 97 % 999,7 hPa 0,0 l/m² 0 min 0 min 0 W/m² 16,1 km/h (3 Bft) 95,65 %
04.02.2026 00:10 3,1 °C 2,8 °C -1,1 °C 97 % 999,7 hPa 0,0 l/m² 0 min 0 min 0 W/m² 16,1 km/h (3 Bft) 97,87 %
04.02.2026 00:12 3,1 °C 2,8 °C -1,1 °C 97 % 999,7 hPa 0,0 l/m² 0 min 0 min 0 W/m² 12,9 km/h (3 Bft) 97,87 %
04.02.2026 00:14 3,1 °C 2,8 °C -1,1 °C 97 % 999,7 hPa 0,0 l/m² 0 min 0 min 0 W/m² 16,1 km/h (3 Bft) 97,87 %
04.02.2026 00:16 3,2 °C 2,8 °C -1,1 °C 97 % 999,7 hPa 0,0 l/m² 0 min 0 min 0 W/m² 12,9 km/h (3 Bft) 97,87 %
04.02.2026 00:18 3,2 °C 2,8 °C -1,1 °C 97 % 999,7 hPa 0,0 l/m² 0 min 0 min 0 W/m² 12,9 km/h (3 Bft) 95,65 %
04.02.2026 00:20 3,2 °C 2,8 °C -1,1 °C 97 % 999,7 hPa 0,0 l/m² 0 min 0 min 0 W/m² 16,1 km/h (3 Bft) 95,74 %
04.02.2026 00:22 3,2 °C 2,8 °C -1,1 °C 97 % 999,7 hPa 0,0 l/m² 0 min 0 min 0 W/m² 19,3 km/h (3 Bft) 95,74 %
04.02.2026 00:24 3,2 °C 2,8 °C -1,1 °C 97 % 999,7 hPa 0,0 l/m² 0 min 0 min 0 W/m² 12,9 km/h (3 Bft) 91,49 %
04.02.2026 00:26 3,2 °C 2,8 °C -1,1 °C 97 % 999,8 hPa 0,0 l/m² 0 min 0 min 0 W/m² 12,9 km/h (3 Bft) 93,62 %
04.02.2026 00:28 3,3 °C 2,8 °C -1,1 °C 97 % 999,7 hPa 0,0 l/m² 0 min 0 min 0 W/m² 12,9 km/h (3 Bft) 93,48 %
04.02.2026 00:30 3,3 °C 2,8 °C -1,1 °C 97 % 999,7 hPa 0,0 l/m² 0 min 0 min 0 W/m² 12,9 km/h (3 Bft) 93,62 %
04.02.2026 00:32 3,3 °C 2,8 °C -1,1 °C 97 % 999,8 hPa 0,0 l/m² 0 min 0 min 0 W/m² 9,7 km/h (2 Bft) 93,62 %
04.02.2026 00:34 3,3 °C 2,8 °C -1,1 °C 97 % 999,7 hPa 0,0 l/m² 0 min 0 min 0 W/m² 12,9 km/h (3 Bft) 93,62 %
04.02.2026 00:36 3,3 °C 2,8 °C -1,1 °C 97 % 999,7 hPa 0,0 l/m² 0 min 0 min 0 W/m² 9,7 km/h (2 Bft) 95,74 %
04.02.2026 00:38 3,3 °C 2,8 °C -1,1 °C 97 % 999,7 hPa 0,0 l/m² 0 min 0 min 0 W/m² 12,9 km/h (3 Bft) 95,74 %
04.02.2026 00:40 3,3 °C 2,8 °C -1,1 °C 97 % 999,7 hPa 0,0 l/m² 0 min 0 min 0 W/m² 16,1 km/h (3 Bft) 95,65 %
04.02.2026 00:42 3,3 °C 2,8 °C -1,1 °C 97 % 999,7 hPa 0,0 l/m² 0 min 0 min 0 W/m² 12,9 km/h (3 Bft) 93,62 %
04.02.2026 00:44 3,3 °C 2,8 °C -1,1 °C 97 % 999,7 hPa 0,0 l/m² 0 min 0 min 0 W/m² 16,1 km/h (3 Bft) 95,74 %
04.02.2026 00:46 3,3 °C 2,8 °C -1,1 °C 97 % 999,8 hPa 0,0 l/m² 0 min 0 min 0 W/m² 16,1 km/h (3 Bft) 95,74 %
04.02.2026 00:48 3,3 °C 2,8 °C -1,1 °C 97 % 999,8 hPa 0,0 l/m² 0 min 0 min 0 W/m² 16,1 km/h (3 Bft) 95,74 %
04.02.2026 00:50 3,3 °C 2,8 °C -1,1 °C 97 % 999,7 hPa 0,0 l/m² 0 min 0 min 0 W/m² 9,7 km/h (2 Bft) 95,74 %
04.02.2026 00:52 3,3 °C 2,8 °C -1,1 °C 97 % 999,7 hPa 0,0 l/m² 0 min 0 min 0 W/m² 19,3 km/h (3 Bft) 97,83 %
04.02.2026 00:54 3,3 °C 2,8 °C -1,1 °C 97 % 999,7 hPa 0,0 l/m² 0 min 0 min 0 W/m² 6,4 km/h (2 Bft) 97,87 %
04.02.2026 00:56 3,3 °C 2,8 °C -1,1 °C 97 % 999,7 hPa 0,0 l/m² 0 min 0 min 0 W/m² 12,9 km/h (3 Bft) 97,87 %
04.02.2026 00:58 3,3 °C 2,8 °C -1,1 °C 97 % 999,7 hPa 0,0 l/m² 0 min 0 min 0 W/m² 16,1 km/h (3 Bft) 97,87 %
04.02.2026 01:00 3,3 °C 2,8 °C -1,1 °C 97 % 999,7 hPa 0,0 l/m² 0 min 0 min 0 W/m² 19,3 km/h (3 Bft) 95,74 %
04.02.2026 01:02 3,3 °C 2,8 °C -1,1 °C 97 % 999,8 hPa 0,0 l/m² 0 min 0 min 0 W/m² 12,9 km/h (3 Bft) 97,87 %
04.02.2026 01:04 3,3 °C 2,8 °C -1,1 °C 97 % 999,8 hPa 0,0 l/m² 0 min 0 min 0 W/m² 19,3 km/h (3 Bft) 97,87 %
04.02.2026 01:06 3,3 °C 2,8 °C -1,1 °C 97 % 999,8 hPa 0,0 l/m² 0 min 0 min 0 W/m² 16,1 km/h (3 Bft) 97,87 %
04.02.2026 01:08 3,3 °C 2,8 °C -1,1 °C 97 % 999,8 hPa 0,0 l/m² 0 min 0 min 0 W/m² 16,1 km/h (3 Bft) 97,87 %
04.02.2026 01:10 3,3 °C 2,8 °C -1,1 °C 97 % 999,8 hPa 0,0 l/m² 0 min 0 min 0 W/m² 12,9 km/h (3 Bft) 97,14 %
04.02.2026 01:12 3,3 °C 2,8 °C -1,1 °C 97 % 999,8 hPa 0,0 l/m² 0 min 0 min 0 W/m² 16,1 km/h (3 Bft) 97,87 %
04.02.2026 01:14 3,3 °C 2,8 °C -1,1 °C 97 % 999,8 hPa 0,0 l/m² 0 min 0 min 0 W/m² 6,4 km/h (2 Bft) 97,87 %
04.02.2026 01:16 3,3 °C 2,8 °C -0,6 °C 97 % 999,8 hPa 0,0 l/m² 0 min 0 min 0 W/m² 12,9 km/h (3 Bft) 100,00 %
04.02.2026 01:18 3,3 °C 2,8 °C -0,6 °C 97 % 999,8 hPa 0,0 l/m² 0 min 0 min 0 W/m² 12,9 km/h (3 Bft) 100,00 %
04.02.2026 01:20 3,3 °C 2,8 °C -0,6 °C 97 % 999,8 hPa 0,0 l/m² 0 min 0 min 0 W/m² 12,9 km/h (3 Bft) 100,00 %
04.02.2026 01:22 3,3 °C 2,8 °C -0,6 °C 97 % 999,7 hPa 0,0 l/m² 0 min 0 min 0 W/m² 12,9 km/h (3 Bft) 100,00 %
04.02.2026 01:24 3,3 °C 2,8 °C -0,6 °C 97 % 999,8 hPa 0,0 l/m² 0 min 0 min 0 W/m² 12,9 km/h (3 Bft) 100,00 %
04.02.2026 01:26 3,3 °C 2,8 °C -0,6 °C 97 % 999,7 hPa 0,0 l/m² 0 min 0 min 0 W/m² 16,1 km/h (3 Bft) 100,00 %
04.02.2026 01:28 3,4 °C 2,8 °C -0,6 °C 97 % 999,7 hPa 0,0 l/m² 0 min 0 min 0 W/m² 16,1 km/h (3 Bft) 100,00 %
04.02.2026 01:30 3,4 °C 2,8 °C -0,6 °C 97 % 999,6 hPa 0,0 l/m² 0 min 0 min 0 W/m² 12,9 km/h (3 Bft) 100,00 %
04.02.2026 01:32 3,4 °C 2,8 °C -0,6 °C 97 % 999,7 hPa 0,0 l/m² 0 min 0 min 0 W/m² 12,9 km/h (3 Bft) 100,00 %
04.02.2026 01:34 3,4 °C 3,3 °C -0,6 °C 97 % 999,7 hPa 0,0 l/m² 0 min 0 min 0 W/m² 12,9 km/h (3 Bft) 97,87 %
04.02.2026 01:36 3,4 °C 3,3 °C -0,6 °C 97 % 999,6 hPa 0,0 l/m² 0 min 0 min 0 W/m² 9,7 km/h (2 Bft) 97,87 %
04.02.2026 01:38 3,5 °C 3,3 °C -0,6 °C 97 % 999,7 hPa 0,0 l/m² 0 min 0 min 0 W/m² 16,1 km/h (3 Bft) 100,00 %
04.02.2026 01:40 3,5 °C 3,3 °C -0,6 °C 97 % 999,6 hPa 0,0 l/m² 0 min 0 min 0 W/m² 16,1 km/h (3 Bft) 100,00 %
04.02.2026 01:42 3,5 °C 3,3 °C -0,6 °C 97 % 999,7 hPa 0,0 l/m² 0 min 0 min 0 W/m² 16,1 km/h (3 Bft) 100,00 %
04.02.2026 01:44 3,5 °C 3,3 °C -0,6 °C 97 % 999,6 hPa 0,0 l/m² 0 min 0 min 0 W/m² 12,9 km/h (3 Bft) 100,00 %
04.02.2026 01:46 3,6 °C 3,3 °C -0,6 °C 97 % 999,6 hPa 0,0 l/m² 0 min 0 min 0 W/m² 12,9 km/h (3 Bft) 100,00 %
04.02.2026 01:48 3,6 °C 3,3 °C -0,6 °C 97 % 999,6 hPa 0,0 l/m² 0 min 0 min 0 W/m² 9,7 km/h (2 Bft) 100,00 %
04.02.2026 01:50 3,6 °C 3,3 °C -0,6 °C 97 % 999,7 hPa 0,0 l/m² 0 min 0 min 0 W/m² 12,9 km/h (3 Bft) 100,00 %
04.02.2026 01:52 3,6 °C 3,3 °C -0,6 °C 97 % 999,7 hPa 0,0 l/m² 0 min 0 min 0 W/m² 12,9 km/h (3 Bft) 100,00 %
04.02.2026 01:54 3,6 °C 3,3 °C -0,6 °C 97 % 999,6 hPa 0,0 l/m² 0 min 0 min 0 W/m² 16,1 km/h (3 Bft) 100,00 %
04.02.2026 01:56 3,6 °C 3,3 °C -0,6 °C 97 % 999,6 hPa 0,0 l/m² 0 min 0 min 0 W/m² 12,9 km/h (3 Bft) 100,00 %
04.02.2026 01:58 3,6 °C 3,3 °C -0,6 °C 97 % 999,6 hPa 0,0 l/m² 0 min 0 min 0 W/m² 12,9 km/h (3 Bft) 100,00 %
04.02.2026 02:00 3,7 °C 3,3 °C -0,6 °C 97 % 999,6 hPa 0,0 l/m² 0 min 0 min 0 W/m² 12,9 km/h (3 Bft) 100,00 %
04.02.2026 02:02 3,7 °C 3,3 °C -0,6 °C 97 % 999,6 hPa 0,0 l/m² 0 min 0 min 0 W/m² 16,1 km/h (3 Bft) 100,00 %
04.02.2026 02:04 3,7 °C 3,3 °C -0,6 °C 97 % 999,6 hPa 0,0 l/m² 0 min 0 min 0 W/m² 16,1 km/h (3 Bft) 97,87 %
04.02.2026 02:06 3,7 °C 3,3 °C -0,6 °C 97 % 999,6 hPa 0,0 l/m² 0 min 0 min 0 W/m² 16,1 km/h (3 Bft) 100,00 %
04.02.2026 02:08 3,7 °C 3,3 °C -0,6 °C 97 % 999,6 hPa 0,0 l/m² 0 min 0 min 0 W/m² 12,9 km/h (3 Bft) 95,74 %
04.02.2026 02:10 3,7 °C 3,3 °C -0,6 °C 97 % 999,6 hPa 0,0 l/m² 0 min 0 min 0 W/m² 16,1 km/h (3 Bft) 97,14 %
04.02.2026 02:12 3,7 °C 3,3 °C -0,6 °C 97 % 999,6 hPa 0,0 l/m² 0 min 0 min 0 W/m² 16,1 km/h (3 Bft) 97,87 %
04.02.2026 02:14 3,8 °C 3,3 °C -0,6 °C 97 % 999,7 hPa 0,0 l/m² 0 min 0 min 0 W/m² 19,3 km/h (3 Bft) 97,87 %
04.02.2026 02:16 3,8 °C 3,3 °C -0,6 °C 97 % 999,6 hPa 0,0 l/m² 0 min 0 min 0 W/m² 16,1 km/h (3 Bft) 97,87 %
04.02.2026 02:18 3,8 °C 3,3 °C -0,6 °C 97 % 999,7 hPa 0,0 l/m² 0 min 0 min 0 W/m² 6,4 km/h (2 Bft) 95,65 %
04.02.2026 02:20 3,8 °C 3,3 °C -0,6 °C 97 % 999,6 hPa 0,0 l/m² 0 min 0 min 0 W/m² 16,1 km/h (3 Bft) 97,87 %
04.02.2026 02:22 3,8 °C 3,3 °C -0,6 °C 97 % 999,6 hPa 0,0 l/m² 0 min 0 min 0 W/m² 9,7 km/h (2 Bft) 95,74 %
04.02.2026 02:24 3,8 °C 3,3 °C -0,6 °C 97 % 999,6 hPa 0,0 l/m² 0 min 0 min 0 W/m² 9,7 km/h (2 Bft) 95,74 %
04.02.2026 02:26 3,8 °C 3,3 °C -0,6 °C 97 % 999,6 hPa 0,0 l/m² 0 min 0 min 0 W/m² 6,4 km/h (2 Bft) 95,74 %
04.02.2026 02:28 3,8 °C 3,3 °C -0,6 °C 97 % 999,6 hPa 0,0 l/m² 0 min 0 min 0 W/m² 12,9 km/h (3 Bft) 95,65 %
04.02.2026 02:30 3,8 °C 3,3 °C -0,6 °C 97 % 999,6 hPa 0,0 l/m² 0 min 0 min 0 W/m² 16,1 km/h (3 Bft) 95,74 %
04.02.2026 02:32 3,8 °C 3,3 °C -0,6 °C 97 % 999,6 hPa 0,0 l/m² 0 min 0 min 0 W/m² 16,1 km/h (3 Bft) 91,49 %
04.02.2026 02:34 3,8 °C 3,3 °C -0,6 °C 97 % 999,6 hPa 0,0 l/m² 0 min 0 min 0 W/m² 12,9 km/h (3 Bft) 93,62 %
04.02.2026 02:36 3,8 °C 3,3 °C -0,6 °C 97 % 999,6 hPa 0,0 l/m² 0 min 0 min 0 W/m² 6,4 km/h (2 Bft) 95,74 %
04.02.2026 02:38 3,8 °C 3,3 °C -0,6 °C 97 % 999,6 hPa 0,0 l/m² 0 min 0 min 0 W/m² 12,9 km/h (3 Bft) 95,74 %
04.02.2026 02:40 3,8 °C 3,3 °C -0,6 °C 97 % 999,6 hPa 0,0 l/m² 0 min 0 min 0 W/m² 9,7 km/h (2 Bft) 95,65 %
04.02.2026 02:42 3,8 °C 3,3 °C -0,6 °C 97 % 999,7 hPa 0,0 l/m² 0 min 0 min 0 W/m² 16,1 km/h (3 Bft) 95,74 %
04.02.2026 02:44 3,8 °C 3,3 °C -0,6 °C 97 % 999,7 hPa 0,0 l/m² 0 min 0 min 0 W/m² 12,9 km/h (3 Bft) 97,87 %
04.02.2026 02:46 3,8 °C 3,3 °C -0,6 °C 97 % 999,7 hPa 0,0 l/m² 0 min 0 min 0 W/m² 12,9 km/h (3 Bft) 93,62 %
04.02.2026 02:48 3,8 °C 3,3 °C -0,6 °C 97 % 999,7 hPa 0,0 l/m² 0 min 0 min 0 W/m² 19,3 km/h (3 Bft) 95,74 %
04.02.2026 02:50 3,8 °C 3,3 °C -0,6 °C 97 % 999,7 hPa 0,0 l/m² 0 min 0 min 0 W/m² 16,1 km/h (3 Bft) 95,74 %
04.02.2026 02:52 3,8 °C 3,3 °C -0,6 °C 97 % 999,7 hPa 0,0 l/m² 0 min 0 min 0 W/m² 12,9 km/h (3 Bft) 97,83 %
04.02.2026 02:54 3,8 °C 3,3 °C -0,6 °C 97 % 999,7 hPa 0,0 l/m² 0 min 0 min 0 W/m² 12,9 km/h (3 Bft) 97,87 %
04.02.2026 02:56 3,8 °C 3,3 °C -0,6 °C 97 % 999,7 hPa 0,0 l/m² 0 min 0 min 0 W/m² 12,9 km/h (3 Bft) 95,74 %
04.02.2026 02:58 3,8 °C 3,3 °C -0,6 °C 97 % 999,8 hPa 0,0 l/m² 0 min 0 min 0 W/m² 12,9 km/h (3 Bft) 97,87 %
04.02.2026 03:00 3,8 °C 3,3 °C -0,6 °C 97 % 999,8 hPa 0,0 l/m² 0 min 0 min 0 W/m² 12,9 km/h (3 Bft) 100,00 %
04.02.2026 03:02 3,8 °C 3,3 °C -0,6 °C 97 % 999,8 hPa 0,0 l/m² 0 min 0 min 0 W/m² 19,3 km/h (3 Bft) 95,74 %
04.02.2026 03:04 3,8 °C 3,3 °C -0,6 °C 97 % 999,8 hPa 0,0 l/m² 0 min 0 min 0 W/m² 16,1 km/h (3 Bft) 100,00 %
04.02.2026 03:06 3,8 °C 3,3 °C -0,6 °C 97 % 999,8 hPa 0,0 l/m² 0 min 0 min 0 W/m² 19,3 km/h (3 Bft) 100,00 %
04.02.2026 03:08 3,8 °C 3,3 °C -0,6 °C 97 % 999,8 hPa 0,0 l/m² 0 min 0 min 0 W/m² 12,9 km/h (3 Bft) 100,00 %
04.02.2026 03:10 3,8 °C 3,3 °C -0,6 °C 97 % 999,8 hPa 0,0 l/m² 0 min 0 min 0 W/m² 16,1 km/h (3 Bft) 100,00 %
04.02.2026 03:12 3,8 °C 3,3 °C 0,0 °C 97 % 999,8 hPa 0,0 l/m² 0 min 0 min 0 W/m² 16,1 km/h (3 Bft) 100,00 %
04.02.2026 03:14 3,9 °C 3,3 °C 0,0 °C 97 % 999,8 hPa 0,0 l/m² 0 min 0 min 0 W/m² 16,1 km/h (3 Bft) 100,00 %
04.02.2026 03:16 3,8 °C 3,3 °C 0,0 °C 97 % 999,8 hPa 0,0 l/m² 0 min 0 min 0 W/m² 19,3 km/h (3 Bft) 100,00 %
04.02.2026 03:18 3,9 °C 3,3 °C 0,0 °C 97 % 999,7 hPa 0,0 l/m² 0 min 0 min 0 W/m² 16,1 km/h (3 Bft) 97,87 %
04.02.2026 03:20 3,9 °C 3,3 °C 0,0 °C 97 % 999,6 hPa 0,0 l/m² 0 min 0 min 0 W/m² 12,9 km/h (3 Bft) 100,00 %
04.02.2026 03:22 3,9 °C 3,3 °C 0,0 °C 97 % 999,7 hPa 0,0 l/m² 0 min 0 min 0 W/m² 12,9 km/h (3 Bft) 100,00 %
04.02.2026 03:24 3,9 °C 3,3 °C 0,0 °C 97 % 999,5 hPa 0,0 l/m² 0 min 0 min 0 W/m² 12,9 km/h (3 Bft) 100,00 %
04.02.2026 03:26 3,9 °C 3,3 °C 0,0 °C 97 % 999,6 hPa 0,0 l/m² 0 min 0 min 0 W/m² 16,1 km/h (3 Bft) 100,00 %
04.02.2026 03:28 3,9 °C 3,3 °C 0,0 °C 97 % 999,6 hPa 0,0 l/m² 0 min 0 min 0 W/m² 16,1 km/h (3 Bft) 100,00 %
04.02.2026 03:30 3,9 °C 3,3 °C 0,0 °C 97 % 999,7 hPa 0,0 l/m² 0 min 0 min 0 W/m² 19,3 km/h (3 Bft) 100,00 %
04.02.2026 03:32 3,9 °C 3,3 °C 0,0 °C 97 % 999,7 hPa 0,0 l/m² 0 min 0 min 0 W/m² 16,1 km/h (3 Bft) 97,87 %
04.02.2026 03:34 3,9 °C 3,3 °C -0,6 °C 97 % 999,6 hPa 0,0 l/m² 0 min 0 min 0 W/m² 16,1 km/h (3 Bft) 97,87 %
04.02.2026 03:36 3,9 °C 3,3 °C -0,6 °C 97 % 999,7 hPa 0,0 l/m² 0 min 0 min 0 W/m² 16,1 km/h (3 Bft) 97,87 %
04.02.2026 03:38 3,9 °C 3,3 °C -0,6 °C 97 % 999,6 hPa 0,0 l/m² 0 min 0 min 0 W/m² 16,1 km/h (3 Bft) 97,83 %
04.02.2026 03:40 3,8 °C 3,3 °C -0,6 °C 97 % 999,6 hPa 0,0 l/m² 0 min 0 min 0 W/m² 12,9 km/h (3 Bft) 95,74 %
04.02.2026 03:42 3,8 °C 3,3 °C -0,6 °C 97 % 999,6 hPa 0,0 l/m² 0 min 0 min 0 W/m² 16,1 km/h (3 Bft) 95,74 %
04.02.2026 03:44 3,8 °C 3,3 °C -0,6 °C 97 % 999,6 hPa 0,0 l/m² 0 min 0 min 0 W/m² 12,9 km/h (3 Bft) 97,87 %
04.02.2026 03:46 3,8 °C 3,3 °C -0,6 °C 97 % 999,6 hPa 0,0 l/m² 0 min 0 min 0 W/m² 16,1 km/h (3 Bft) 97,87 %
04.02.2026 03:48 3,8 °C 3,3 °C -0,6 °C 97 % 999,6 hPa 0,0 l/m² 0 min 0 min 0 W/m² 12,9 km/h (3 Bft) 95,74 %
04.02.2026 03:50 3,8 °C 3,3 °C -0,6 °C 97 % 999,5 hPa 0,0 l/m² 0 min 0 min 0 W/m² 16,1 km/h (3 Bft) 97,83 %
04.02.2026 03:52 3,8 °C 3,3 °C -0,6 °C 97 % 999,5 hPa 0,0 l/m² 0 min 0 min 0 W/m² 9,7 km/h (2 Bft) 95,74 %
04.02.2026 03:54 3,8 °C 3,3 °C -0,6 °C 97 % 999,5 hPa 0,0 l/m² 0 min 0 min 0 W/m² 12,9 km/h (3 Bft) 97,87 %
04.02.2026 03:56 3,8 °C 2,8 °C -0,6 °C 97 % 999,5 hPa 0,0 l/m² 0 min 0 min 0 W/m² 12,9 km/h (3 Bft) 93,62 %
04.02.2026 03:58 3,7 °C 2,8 °C -0,6 °C 97 % 999,6 hPa 0,0 l/m² 0 min 0 min 0 W/m² 12,9 km/h (3 Bft) 97,87 %
04.02.2026 04:00 3,7 °C 2,8 °C -0,6 °C 97 % 999,6 hPa 0,0 l/m² 0 min 0 min 0 W/m² 12,9 km/h (3 Bft) 95,74 %
04.02.2026 04:05 3,7 °C 2,8 °C -0,6 °C 97 % 999,6 hPa 0,0 l/m² 0 min 0 min 0 W/m² 19,3 km/h (3 Bft) 100,00 %
04.02.2026 04:08 3,7 °C 2,8 °C -0,6 °C 97 % 999,6 hPa 0,0 l/m² 0 min 0 min 0 W/m² 19,3 km/h (3 Bft) 97,06 %
04.02.2026 04:10 3,6 °C 2,8 °C -0,6 °C 97 % 999,6 hPa 0,0 l/m² 0 min 0 min 0 W/m² 16,1 km/h (3 Bft) 93,48 %
04.02.2026 04:12 3,6 °C 2,8 °C -0,6 °C 97 % 999,6 hPa 0,0 l/m² 0 min 0 min 0 W/m² 12,9 km/h (3 Bft) 97,87 %
04.02.2026 04:14 3,6 °C 2,8 °C -0,6 °C 97 % 999,6 hPa 0,0 l/m² 0 min 0 min 0 W/m² 16,1 km/h (3 Bft) 95,74 %
04.02.2026 04:16 3,6 °C 2,8 °C -0,6 °C 97 % 999,6 hPa 0,0 l/m² 0 min 0 min 0 W/m² 16,1 km/h (3 Bft) 95,74 %
04.02.2026 04:18 3,6 °C 2,8 °C -0,6 °C 97 % 999,5 hPa 0,0 l/m² 0 min 0 min 0 W/m² 12,9 km/h (3 Bft) 95,65 %
04.02.2026 04:20 3,6 °C 2,8 °C -0,6 °C 97 % 999,6 hPa 0,0 l/m² 0 min 0 min 0 W/m² 16,1 km/h (3 Bft) 97,87 %
04.02.2026 04:22 3,6 °C 2,8 °C -0,6 °C 97 % 999,7 hPa 0,0 l/m² 0 min 0 min 0 W/m² 12,9 km/h (3 Bft) 97,87 %
04.02.2026 04:24 3,6 °C 2,8 °C -0,6 °C 97 % 999,8 hPa 0,0 l/m² 0 min 0 min 0 W/m² 19,3 km/h (3 Bft) 97,87 %
04.02.2026 04:26 3,6 °C 2,8 °C -0,6 °C 97 % 999,7 hPa 0,0 l/m² 0 min 0 min 0 W/m² 16,1 km/h (3 Bft) 97,87 %
04.02.2026 04:28 3,6 °C 2,8 °C -0,6 °C 97 % 999,7 hPa 0,0 l/m² 0 min 0 min 0 W/m² 16,1 km/h (3 Bft) 95,74 %
04.02.2026 04:30 3,6 °C 2,8 °C -0,6 °C 97 % 999,7 hPa 0,0 l/m² 0 min 0 min 0 W/m² 16,1 km/h (3 Bft) 97,83 %
04.02.2026 04:32 3,6 °C 2,8 °C -0,6 °C 97 % 999,7 hPa 0,0 l/m² 0 min 0 min 0 W/m² 22,5 km/h (4 Bft) 97,87 %
04.02.2026 04:34 3,6 °C 2,8 °C -0,6 °C 97 % 999,7 hPa 0,0 l/m² 0 min 0 min 0 W/m² 16,1 km/h (3 Bft) 100,00 %
04.02.2026 04:36 3,6 °C 2,8 °C -0,6 °C 97 % 999,6 hPa 0,0 l/m² 0 min 0 min 0 W/m² 9,7 km/h (2 Bft) 95,74 %
04.02.2026 04:38 3,5 °C 2,8 °C -0,6 °C 97 % 999,6 hPa 0,0 l/m² 0 min 0 min 0 W/m² 12,9 km/h (3 Bft) 95,74 %
04.02.2026 04:40 3,5 °C 2,8 °C -0,6 °C 97 % 999,7 hPa 0,0 l/m² 0 min 0 min 0 W/m² 22,5 km/h (4 Bft) 97,87 %
04.02.2026 04:42 3,4 °C 2,8 °C -0,6 °C 97 % 999,6 hPa 0,0 l/m² 0 min 0 min 0 W/m² 16,1 km/h (3 Bft) 100,00 %
04.02.2026 04:44 3,4 °C 2,8 °C -0,6 °C 97 % 999,6 hPa 0,0 l/m² 0 min 0 min 0 W/m² 19,3 km/h (3 Bft) 97,87 %
04.02.2026 04:46 3,4 °C 2,8 °C -0,6 °C 97 % 999,6 hPa 0,0 l/m² 0 min 0 min 0 W/m² 16,1 km/h (3 Bft) 97,87 %
04.02.2026 04:48 3,4 °C 2,8 °C -0,6 °C 97 % 999,6 hPa 0,0 l/m² 0 min 0 min 0 W/m² 19,3 km/h (3 Bft) 97,87 %
04.02.2026 04:50 3,4 °C 2,8 °C -0,6 °C 97 % 999,6 hPa 0,0 l/m² 0 min 0 min 0 W/m² 16,1 km/h (3 Bft) 97,87 %
04.02.2026 04:52 3,4 °C 2,8 °C -0,6 °C 97 % 999,6 hPa 0,0 l/m² 0 min 0 min 0 W/m² 16,1 km/h (3 Bft) 93,62 %
04.02.2026 04:54 3,3 °C 2,8 °C -0,6 °C 97 % 999,5 hPa 0,0 l/m² 0 min 0 min 0 W/m² 12,9 km/h (3 Bft) 97,83 %
04.02.2026 04:56 3,3 °C 2,8 °C -0,6 °C 97 % 999,6 hPa 0,0 l/m² 0 min 0 min 0 W/m² 12,9 km/h (3 Bft) 95,74 %
04.02.2026 04:58 3,3 °C 2,2 °C -0,6 °C 97 % 999,5 hPa 0,0 l/m² 0 min 0 min 0 W/m² 6,4 km/h (2 Bft) 97,87 %
04.02.2026 05:00 3,3 °C 2,2 °C -1,1 °C 97 % 999,5 hPa 0,0 l/m² 0 min 0 min 0 W/m² 6,4 km/h (2 Bft) 97,87 %
04.02.2026 05:02 3,3 °C 2,2 °C -1,1 °C 97 % 999,5 hPa 0,0 l/m² 0 min 0 min 0 W/m² 6,4 km/h (2 Bft) 97,87 %
04.02.2026 05:04 3,2 °C 2,2 °C -1,1 °C 97 % 999,5 hPa 0,0 l/m² 0 min 0 min 0 W/m² 9,7 km/h (2 Bft) 97,87 %
04.02.2026 05:06 3,2 °C 2,2 °C -1,1 °C 97 % 999,5 hPa 0,0 l/m² 0 min 0 min 0 W/m² 12,9 km/h (3 Bft) 97,83 %
04.02.2026 05:08 3,2 °C 2,2 °C -1,1 °C 97 % 999,6 hPa 0,0 l/m² 0 min 0 min 0 W/m² 6,4 km/h (2 Bft) 97,92 %
04.02.2026 05:10 3,1 °C 2,2 °C -1,1 °C 97 % 999,5 hPa 0,0 l/m² 0 min 0 min 0 W/m² 6,4 km/h (2 Bft) 97,87 %
04.02.2026 05:12 3,1 °C 2,2 °C -1,1 °C 97 % 999,6 hPa 0,0 l/m² 0 min 0 min 0 W/m² 12,9 km/h (3 Bft) 97,87 %
04.02.2026 05:14 3,1 °C 2,2 °C -1,1 °C 97 % 999,5 hPa 0,0 l/m² 0 min 0 min 0 W/m² 12,9 km/h (3 Bft) 93,62 %
04.02.2026 05:16 3,1 °C 2,2 °C -1,1 °C 97 % 999,5 hPa 0,0 l/m² 0 min 0 min 0 W/m² 6,4 km/h (2 Bft) 97,87 %
04.02.2026 05:18 3,1 °C 2,2 °C -1,1 °C 97 % 999,5 hPa 0,0 l/m² 0 min 0 min 0 W/m² 12,9 km/h (3 Bft) 97,83 %
04.02.2026 05:20 3,0 °C 2,2 °C -1,1 °C 97 % 999,5 hPa 0,0 l/m² 0 min 0 min 0 W/m² 12,9 km/h (3 Bft) 97,87 %
04.02.2026 05:22 3,0 °C 2,2 °C -1,1 °C 97 % 999,6 hPa 0,0 l/m² 0 min 0 min 0 W/m² 16,1 km/h (3 Bft) 97,87 %
04.02.2026 05:24 3,0 °C 2,2 °C -1,1 °C 97 % 999,6 hPa 0,0 l/m² 0 min 0 min 0 W/m² 6,4 km/h (2 Bft) 95,74 %
04.02.2026 05:26 2,9 °C 2,2 °C -1,1 °C 97 % 999,6 hPa 0,0 l/m² 0 min 0 min 0 W/m² 6,4 km/h (2 Bft) 100,00 %
04.02.2026 05:28 2,9 °C 2,2 °C -1,1 °C 97 % 999,6 hPa 0,0 l/m² 0 min 0 min 0 W/m² 12,9 km/h (3 Bft) 97,83 %
04.02.2026 05:30 2,9 °C 2,2 °C -1,1 °C 97 % 999,5 hPa 0,0 l/m² 0 min 0 min 0 W/m² 9,7 km/h (2 Bft) 97,87 %
04.02.2026 05:32 2,9 °C 2,2 °C -1,1 °C 97 % 999,5 hPa 0,0 l/m² 0 min 0 min 0 W/m² 12,9 km/h (3 Bft) 95,83 %
04.02.2026 05:34 2,8 °C 2,2 °C -1,1 °C 97 % 999,6 hPa 0,0 l/m² 0 min 0 min 0 W/m² 12,9 km/h (3 Bft) 100,00 %
04.02.2026 05:36 2,8 °C 2,2 °C -1,1 °C 97 % 999,5 hPa 0,0 l/m² 0 min 0 min 0 W/m² 12,9 km/h (3 Bft) 95,74 %
04.02.2026 05:38 2,8 °C 2,2 °C -1,1 °C 97 % 999,6 hPa 0,0 l/m² 0 min 0 min 0 W/m² 12,9 km/h (3 Bft) 100,00 %
04.02.2026 05:40 2,8 °C 2,2 °C -1,1 °C 97 % 999,5 hPa 0,0 l/m² 0 min 0 min 0 W/m² 16,1 km/h (3 Bft) 97,83 %
04.02.2026 05:42 2,8 °C 1,7 °C -1,1 °C 97 % 999,6 hPa 0,0 l/m² 0 min 0 min 0 W/m² 12,9 km/h (3 Bft) 100,00 %
04.02.2026 05:44 2,8 °C 1,7 °C -1,1 °C 97 % 999,6 hPa 0,0 l/m² 0 min 0 min 0 W/m² 12,9 km/h (3 Bft) 97,87 %
04.02.2026 05:46 2,8 °C 1,7 °C -1,1 °C 97 % 999,5 hPa 0,0 l/m² 0 min 0 min 0 W/m² 6,4 km/h (2 Bft) 97,87 %
04.02.2026 05:48 2,8 °C 1,7 °C -1,1 °C 97 % 999,5 hPa 0,0 l/m² 0 min 0 min 0 W/m² 16,1 km/h (3 Bft) 100,00 %
04.02.2026 05:50 2,7 °C 1,7 °C -1,1 °C 97 % 999,4 hPa 0,0 l/m² 0 min 0 min 0 W/m² 12,9 km/h (3 Bft) 97,87 %
04.02.2026 05:52 2,7 °C 1,7 °C -1,1 °C 97 % 999,4 hPa 0,0 l/m² 0 min 0 min 0 W/m² 9,7 km/h (2 Bft) 97,83 %
04.02.2026 05:54 2,7 °C 1,7 °C -1,1 °C 97 % 999,4 hPa 0,0 l/m² 0 min 0 min 0 W/m² 12,9 km/h (3 Bft) 95,74 %
04.02.2026 05:56 2,7 °C 1,7 °C -1,1 °C 97 % 999,4 hPa 0,0 l/m² 0 min 0 min 0 W/m² 16,1 km/h (3 Bft) 97,87 %
04.02.2026 05:58 2,7 °C 1,7 °C -1,1 °C 97 % 999,4 hPa 0,0 l/m² 0 min 0 min 0 W/m² 12,9 km/h (3 Bft) 97,87 %
04.02.2026 06:00 2,7 °C 1,7 °C -1,1 °C 97 % 999,5 hPa 0,0 l/m² 0 min 0 min 0 W/m² 16,1 km/h (3 Bft) 97,14 %
04.02.2026 06:02 2,7 °C 1,7 °C -1,1 °C 97 % 999,5 hPa 0,0 l/m² 0 min 0 min 0 W/m² 19,3 km/h (3 Bft) 98,00 %
04.02.2026 06:04 2,7 °C 1,7 °C -1,1 °C 97 % 999,4 hPa 0,0 l/m² 0 min 0 min 0 W/m² 12,9 km/h (3 Bft) 97,87 %
04.02.2026 06:07 2,7 °C 1,7 °C -1,1 °C 97 % 999,5 hPa 0,0 l/m² 0 min 0 min 0 W/m² 16,1 km/h (3 Bft) 97,18 %
04.02.2026 06:08 2,7 °C 1,7 °C -1,1 °C 97 % 999,5 hPa 0,0 l/m² 0 min 0 min 0 W/m² 12,9 km/h (3 Bft) 96,77 %
04.02.2026 06:12 2,7 °C 1,7 °C -1,1 °C 97 % 999,5 hPa 0,0 l/m² 0 min 0 min 0 W/m² 16,1 km/h (3 Bft) 94,23 %
04.02.2026 06:14 2,6 °C 1,7 °C -1,1 °C 97 % 999,5 hPa 0,0 l/m² 0 min 0 min 0 W/m² 19,3 km/h (3 Bft) 97,87 %
04.02.2026 06:16 2,6 °C 1,7 °C -1,1 °C 97 % 999,4 hPa 0,0 l/m² 0 min 0 min 0 W/m² 9,7 km/h (2 Bft) 97,87 %
04.02.2026 06:18 2,6 °C 1,7 °C -1,1 °C 97 % 999,4 hPa 0,0 l/m² 0 min 0 min 0 W/m² 12,9 km/h (3 Bft) 98,11 %
04.02.2026 06:20 2,6 °C 1,7 °C -1,1 °C 97 % 999,4 hPa 0,0 l/m² 0 min 0 min 0 W/m² 16,1 km/h (3 Bft) 97,87 %
04.02.2026 06:22 2,6 °C 1,7 °C -1,1 °C 97 % 999,4 hPa 0,0 l/m² 0 min 0 min 0 W/m² 12,9 km/h (3 Bft) 100,00 %
04.02.2026 06:24 2,6 °C 1,7 °C -1,1 °C 97 % 999,4 hPa 0,0 l/m² 0 min 0 min 0 W/m² 12,9 km/h (3 Bft) 100,00 %
04.02.2026 06:26 2,6 °C 1,7 °C -1,1 °C 97 % 999,4 hPa 0,0 l/m² 0 min 0 min 0 W/m² 16,1 km/h (3 Bft) 97,87 %
04.02.2026 06:28 2,6 °C 1,7 °C -1,1 °C 97 % 999,4 hPa 0,0 l/m² 0 min 0 min 0 W/m² 12,9 km/h (3 Bft) 100,00 %
04.02.2026 06:30 2,6 °C 1,7 °C -1,1 °C 97 % 999,4 hPa 0,0 l/m² 0 min 0 min 0 W/m² 16,1 km/h (3 Bft) 100,00 %
04.02.2026 06:32 2,6 °C 1,7 °C -1,1 °C 97 % 999,3 hPa 0,0 l/m² 0 min 0 min 0 W/m² 12,9 km/h (3 Bft) 100,00 %
04.02.2026 06:34 2,6 °C 1,7 °C -1,1 °C 97 % 999,3 hPa 0,0 l/m² 0 min 0 min 0 W/m² 16,1 km/h (3 Bft) 100,00 %
04.02.2026 06:36 2,6 °C 1,7 °C -1,1 °C 97 % 999,3 hPa 0,0 l/m² 0 min 0 min 0 W/m² 12,9 km/h (3 Bft) 97,96 %
04.02.2026 06:38 2,6 °C 1,7 °C -1,1 °C 97 % 999,3 hPa 0,0 l/m² 0 min 0 min 0 W/m² 9,7 km/h (2 Bft) 97,87 %
04.02.2026 06:40 2,6 °C 1,7 °C -1,1 °C 97 % 999,2 hPa 0,0 l/m² 0 min 0 min 0 W/m² 16,1 km/h (3 Bft) 98,15 %
04.02.2026 06:42 2,6 °C 1,7 °C -1,1 °C 97 % 999,2 hPa 0,0 l/m² 0 min 0 min 0 W/m² 19,3 km/h (3 Bft) 97,37 %
04.02.2026 06:44 2,6 °C 1,7 °C -1,1 °C 97 % 999,3 hPa 0,0 l/m² 0 min 0 min 0 W/m² 16,1 km/h (3 Bft) 97,92 %
04.02.2026 06:46 2,6 °C 1,7 °C -1,1 °C 97 % 999,2 hPa 0,0 l/m² 0 min 0 min 0 W/m² 9,7 km/h (2 Bft) 97,87 %
04.02.2026 06:48 2,6 °C 1,7 °C -1,1 °C 97 % 999,2 hPa 0,0 l/m² 0 min 0 min 0 W/m² 16,1 km/h (3 Bft) 97,73 %
04.02.2026 06:50 2,6 °C 1,7 °C -1,1 °C 97 % 999,2 hPa 0,0 l/m² 0 min 0 min 0 W/m² 12,9 km/h (3 Bft) 94,00 %
04.02.2026 06:52 2,6 °C 1,7 °C -1,1 °C 97 % 999,2 hPa 0,0 l/m² 0 min 0 min 0 W/m² 16,1 km/h (3 Bft) 97,87 %
04.02.2026 06:54 2,6 °C 1,7 °C -1,1 °C 97 % 999,3 hPa 0,0 l/m² 0 min 0 min 0 W/m² 16,1 km/h (3 Bft) 95,74 %
04.02.2026 06:56 2,6 °C 1,7 °C -1,1 °C 97 % 999,2 hPa 0,0 l/m² 0 min 0 min 0 W/m² 12,9 km/h (3 Bft) 97,83 %
04.02.2026 06:58 2,6 °C 1,7 °C -1,1 °C 97 % 999,3 hPa 0,0 l/m² 0 min 0 min 0 W/m² 12,9 km/h (3 Bft) 95,74 %
04.02.2026 07:00 2,6 °C 1,7 °C -1,1 °C 97 % 999,3 hPa 0,0 l/m² 0 min 0 min 0 W/m² 19,3 km/h (3 Bft) 97,87 %
04.02.2026 07:02 2,6 °C 1,7 °C -1,1 °C 97 % 999,3 hPa 0,0 l/m² 0 min 0 min 0 W/m² 16,1 km/h (3 Bft) 95,74 %
04.02.2026 07:04 2,5 °C 1,7 °C -1,1 °C 97 % 999,3 hPa 0,0 l/m² 0 min 0 min 0 W/m² 16,1 km/h (3 Bft) 93,75 %
04.02.2026 07:06 2,5 °C 1,7 °C -1,1 °C 97 % 999,3 hPa 0,0 l/m² 0 min 0 min 0 W/m² 19,3 km/h (3 Bft) 97,83 %
04.02.2026 07:08 2,5 °C 1,7 °C -1,1 °C 97 % 999,3 hPa 0,0 l/m² 0 min 0 min 0 W/m² 19,3 km/h (3 Bft) 97,87 %
04.02.2026 07:10 2,5 °C 1,7 °C -1,1 °C 97 % 999,3 hPa 0,0 l/m² 0 min 0 min 0 W/m² 12,9 km/h (3 Bft) 95,74 %
04.02.2026 07:12 2,5 °C 1,7 °C -1,1 °C 97 % 999,3 hPa 0,0 l/m² 0 min 0 min 0 W/m² 16,1 km/h (3 Bft) 95,74 %
04.02.2026 07:14 2,5 °C 1,7 °C -1,7 °C 97 % 999,3 hPa 0,0 l/m² 0 min 0 min 0 W/m² 12,9 km/h (3 Bft) 95,35 %
04.02.2026 07:16 2,4 °C 1,7 °C -1,7 °C 97 % 999,3 hPa 0,0 l/m² 0 min 0 min 0 W/m² 12,9 km/h (3 Bft) 95,74 %
04.02.2026 07:18 2,4 °C 1,7 °C -1,7 °C 97 % 999,3 hPa 0,0 l/m² 0 min 0 min 0 W/m² 16,1 km/h (3 Bft) 95,74 %
04.02.2026 07:20 2,4 °C 1,7 °C -1,7 °C 97 % 999,3 hPa 0,0 l/m² 0 min 0 min 0 W/m² 22,5 km/h (4 Bft) 95,65 %
04.02.2026 07:22 2,4 °C 1,7 °C -1,7 °C 97 % 999,3 hPa 0,0 l/m² 0 min 0 min 0 W/m² 16,1 km/h (3 Bft) 93,88 %
04.02.2026 07:24 2,4 °C 1,7 °C -1,7 °C 97 % 999,3 hPa 0,0 l/m² 0 min 0 min 0 W/m² 19,3 km/h (3 Bft) 93,62 %
04.02.2026 07:26 2,4 °C 1,7 °C -1,7 °C 97 % 999,4 hPa 0,0 l/m² 0 min 0 min 0 W/m² 16,1 km/h (3 Bft) 95,74 %
04.02.2026 07:28 2,4 °C 1,7 °C -1,7 °C 97 % 999,4 hPa 0,0 l/m² 0 min 0 min 0 W/m² 16,1 km/h (3 Bft) 95,74 %
04.02.2026 07:30 2,4 °C 1,7 °C -1,7 °C 97 % 999,4 hPa 0,0 l/m² 0 min 0 min 0 W/m² 16,1 km/h (3 Bft) 97,83 %
04.02.2026 07:32 2,4 °C 1,7 °C -1,7 °C 97 % 999,4 hPa 0,0 l/m² 0 min 0 min 0 W/m² 19,3 km/h (3 Bft) 97,87 %
04.02.2026 07:34 2,4 °C 1,7 °C -1,7 °C 97 % 999,5 hPa 0,0 l/m² 0 min 0 min 0 W/m² 19,3 km/h (3 Bft) 97,87 %
04.02.2026 07:36 2,3 °C 1,7 °C -1,7 °C 97 % 999,5 hPa 0,0 l/m² 0 min 0 min 0 W/m² 19,3 km/h (3 Bft) 93,62 %
04.02.2026 07:38 2,3 °C 1,7 °C -1,7 °C 97 % 999,5 hPa 0,0 l/m² 0 min 0 min 0 W/m² 22,5 km/h (4 Bft) 95,92 %
04.02.2026 07:40 2,3 °C 1,7 °C -1,7 °C 97 % 999,5 hPa 0,0 l/m² 0 min 0 min 0 W/m² 19,3 km/h (3 Bft) 93,62 %
04.02.2026 07:42 2,3 °C 1,7 °C -1,7 °C 97 % 999,6 hPa 0,0 l/m² 0 min 0 min 0 W/m² 22,5 km/h (4 Bft) 95,65 %
04.02.2026 07:44 2,3 °C 1,7 °C -1,7 °C 97 % 999,5 hPa 0,0 l/m² 0 min 0 min 0 W/m² 19,3 km/h (3 Bft) 93,62 %
04.02.2026 07:46 2,3 °C 1,7 °C -1,7 °C 97 % 999,5 hPa 0,0 l/m² 0 min 0 min 0 W/m² 19,3 km/h (3 Bft) 95,74 %
04.02.2026 07:48 2,3 °C 1,7 °C -1,1 °C 97 % 999,5 hPa 0,0 l/m² 0 min 0 min 0 W/m² 12,9 km/h (3 Bft) 95,24 %
04.02.2026 07:50 2,3 °C 1,7 °C -1,1 °C 97 % 999,6 hPa 0,0 l/m² 0 min 0 min 0 W/m² 22,5 km/h (4 Bft) 92,31 %
04.02.2026 07:52 2,3 °C 1,7 °C -1,1 °C 97 % 999,5 hPa 0,0 l/m² 0 min 0 min 0 W/m² 12,9 km/h (3 Bft) 95,65 %
04.02.2026 07:54 2,3 °C 1,7 °C -1,1 °C 97 % 999,5 hPa 0,0 l/m² 0 min 0 min 0 W/m² 12,9 km/h (3 Bft) 100,00 %
04.02.2026 07:56 2,3 °C 1,7 °C -1,1 °C 97 % 999,6 hPa 0,0 l/m² 0 min 0 min 0 W/m² 16,1 km/h (3 Bft) 100,00 %
04.02.2026 07:58 2,3 °C 1,7 °C -1,1 °C 97 % 999,6 hPa 0,0 l/m² 0 min 0 min 0 W/m² 12,9 km/h (3 Bft) 88,89 %
04.02.2026 08:00 2,3 °C 1,7 °C -1,1 °C 97 % 999,6 hPa 0,0 l/m² 0 min 0 min 0 W/m² 16,1 km/h (3 Bft) 95,74 %
04.02.2026 08:02 2,3 °C 1,7 °C -1,1 °C 97 % 999,6 hPa 0,0 l/m² 0 min 0 min 0 W/m² 12,9 km/h (3 Bft) 95,74 %
04.02.2026 08:04 2,3 °C 1,7 °C -1,1 °C 97 % 999,6 hPa 0,0 l/m² 0 min 0 min 0 W/m² 19,3 km/h (3 Bft) 97,73 %
04.02.2026 08:06 2,3 °C 1,7 °C -1,1 °C 97 % 999,5 hPa 0,0 l/m² 0 min 0 min 0 W/m² 12,9 km/h (3 Bft) 98,28 %
04.02.2026 08:08 2,3 °C 1,7 °C -1,1 °C 97 % 999,5 hPa 0,0 l/m² 0 min 0 min 1 W/m² 16,1 km/h (3 Bft) 97,14 %
04.02.2026 08:10 2,3 °C 1,7 °C -1,1 °C 97 % 999,6 hPa 0,0 l/m² 0 min 0 min 5 W/m² 12,9 km/h (3 Bft) 97,92 %
04.02.2026 08:12 2,3 °C 1,7 °C -1,1 °C 97 % 999,6 hPa 0,0 l/m² 0 min 0 min 6 W/m² 19,3 km/h (3 Bft) 97,87 %
04.02.2026 08:14 2,3 °C 1,7 °C -1,1 °C 97 % 999,6 hPa 0,0 l/m² 0 min 0 min 7 W/m² 16,1 km/h (3 Bft) 100,00 %
04.02.2026 08:16 2,3 °C 1,7 °C -1,1 °C 97 % 999,6 hPa 0,0 l/m² 0 min 0 min 9 W/m² 22,5 km/h (4 Bft) 97,83 %
04.02.2026 08:18 2,4 °C 2,2 °C -1,1 °C 97 % 999,6 hPa 0,0 l/m² 0 min 0 min 9 W/m² 29,0 km/h (5 Bft) 100,00 %
04.02.2026 08:20 2,4 °C 2,2 °C -1,1 °C 98 % 999,6 hPa 0,0 l/m² 0 min 0 min 10 W/m² 16,1 km/h (3 Bft) 100,00 %
04.02.2026 08:22 2,4 °C 2,2 °C -1,1 °C 98 % 999,6 hPa 0,0 l/m² 0 min 0 min 11 W/m² 12,9 km/h (3 Bft) 100,00 %
04.02.2026 08:24 2,4 °C 2,2 °C -1,1 °C 98 % 999,6 hPa 0,0 l/m² 0 min 0 min 11 W/m² 19,3 km/h (3 Bft) 97,14 %
04.02.2026 08:26 2,4 °C 2,2 °C -1,1 °C 98 % 999,6 hPa 0,0 l/m² 0 min 0 min 12 W/m² 12,9 km/h (3 Bft) 100,00 %
04.02.2026 08:28 2,4 °C 2,2 °C -1,1 °C 98 % 999,6 hPa 0,0 l/m² 0 min 0 min 14 W/m² 16,1 km/h (3 Bft) 100,00 %
04.02.2026 08:30 2,4 °C 2,2 °C -1,1 °C 98 % 999,6 hPa 0,0 l/m² 0 min 0 min 15 W/m² 16,1 km/h (3 Bft) 100,00 %
04.02.2026 08:32 2,4 °C 2,2 °C -1,1 °C 97 % 999,6 hPa 0,0 l/m² 0 min 0 min 17 W/m² 12,9 km/h (3 Bft) 100,00 %
04.02.2026 08:34 2,4 °C 2,2 °C -1,1 °C 98 % 999,6 hPa 0,0 l/m² 0 min 0 min 19 W/m² 12,9 km/h (3 Bft) 100,00 %
04.02.2026 08:36 2,5 °C 2,2 °C -1,1 °C 98 % 999,6 hPa 0,0 l/m² 0 min 0 min 24 W/m² 12,9 km/h (3 Bft) 100,00 %
04.02.2026 08:38 2,5 °C 2,2 °C -1,1 °C 98 % 999,6 hPa 0,0 l/m² 0 min 0 min 27 W/m² 12,9 km/h (3 Bft) 100,00 %
04.02.2026 08:40 2,5 °C 2,2 °C -1,1 °C 98 % 999,6 hPa 0,0 l/m² 0 min 0 min 32 W/m² 12,9 km/h (3 Bft) 100,00 %
04.02.2026 08:42 2,5 °C 2,2 °C -1,1 °C 98 % 999,6 hPa 0,0 l/m² 0 min 0 min 34 W/m² 12,9 km/h (3 Bft) 100,00 %
04.02.2026 08:44 2,6 °C 2,2 °C -1,1 °C 98 % 999,7 hPa 0,0 l/m² 0 min 0 min 37 W/m² 12,9 km/h (3 Bft) 100,00 %
04.02.2026 08:46 2,6 °C 2,2 °C -1,1 °C 98 % 999,7 hPa 0,0 l/m² 0 min 0 min 36 W/m² 6,4 km/h (2 Bft) 100,00 %
04.02.2026 08:48 2,6 °C 2,8 °C -1,1 °C 98 % 999,6 hPa 0,0 l/m² 0 min 0 min 33 W/m² 19,3 km/h (3 Bft) 100,00 %
04.02.2026 08:50 2,6 °C 2,8 °C -1,1 °C 98 % 999,6 hPa 0,0 l/m² 0 min 0 min 32 W/m² 6,4 km/h (2 Bft) 100,00 %
04.02.2026 08:52 2,7 °C 2,8 °C -1,1 °C 98 % 999,6 hPa 0,0 l/m² 0 min 0 min 32 W/m² 16,1 km/h (3 Bft) 100,00 %
04.02.2026 08:54 2,7 °C 2,8 °C -1,1 °C 98 % 999,6 hPa 0,0 l/m² 0 min 0 min 30 W/m² 12,9 km/h (3 Bft) 100,00 %
04.02.2026 08:56 2,7 °C 2,8 °C -1,1 °C 98 % 999,6 hPa 0,0 l/m² 0 min 0 min 30 W/m² 12,9 km/h (3 Bft) 100,00 %
04.02.2026 08:58 2,7 °C 2,8 °C -0,6 °C 98 % 999,6 hPa 0,0 l/m² 0 min 0 min 31 W/m² 12,9 km/h (3 Bft) 100,00 %
04.02.2026 09:00 2,8 °C 2,8 °C -0,6 °C 98 % 999,6 hPa 0,0 l/m² 0 min 0 min 33 W/m² 12,9 km/h (3 Bft) 100,00 %
04.02.2026 09:02 2,8 °C 2,8 °C -0,6 °C 98 % 999,7 hPa 0,0 l/m² 0 min 0 min 38 W/m² 9,7 km/h (2 Bft) 100,00 %
04.02.2026 09:04 2,8 °C 2,8 °C -0,6 °C 98 % 999,7 hPa 0,0 l/m² 0 min 0 min 42 W/m² 9,7 km/h (2 Bft) 97,96 %
04.02.2026 09:06 2,8 °C 2,8 °C -0,6 °C 98 % 999,6 hPa 0,0 l/m² 0 min 0 min 44 W/m² 6,4 km/h (2 Bft) 100,00 %
04.02.2026 09:08 2,8 °C 2,8 °C -0,6 °C 98 % 999,6 hPa 0,0 l/m² 0 min 0 min 44 W/m² 6,4 km/h (2 Bft) 97,96 %
04.02.2026 09:10 2,8 °C 2,8 °C -0,6 °C 98 % 999,6 hPa 0,0 l/m² 0 min 0 min 43 W/m² 16,1 km/h (3 Bft) 100,00 %
04.02.2026 09:12 2,8 °C 2,8 °C -0,6 °C 98 % 999,6 hPa 0,0 l/m² 0 min 0 min 38 W/m² 12,9 km/h (3 Bft) 100,00 %
04.02.2026 09:14 2,9 °C 2,8 °C -0,6 °C 98 % 999,6 hPa 0,0 l/m² 0 min 0 min 33 W/m² 12,9 km/h (3 Bft) 100,00 %
04.02.2026 09:16 2,9 °C 2,8 °C -0,6 °C 98 % 999,6 hPa 0,0 l/m² 0 min 0 min 32 W/m² 12,9 km/h (3 Bft) 100,00 %
04.02.2026 09:18 2,9 °C 2,8 °C -0,6 °C 98 % 999,5 hPa 0,0 l/m² 0 min 0 min 32 W/m² 12,9 km/h (3 Bft) 95,74 %
04.02.2026 09:20 2,9 °C 2,8 °C -0,6 °C 98 % 999,5 hPa 0,0 l/m² 0 min 0 min 33 W/m² 19,3 km/h (3 Bft) 97,87 %
04.02.2026 09:22 2,9 °C 2,8 °C -0,6 °C 98 % 999,5 hPa 0,0 l/m² 0 min 0 min 34 W/m² 19,3 km/h (3 Bft) 100,00 %
04.02.2026 09:24 2,9 °C 2,8 °C -0,6 °C 98 % 999,5 hPa 0,0 l/m² 0 min 0 min 36 W/m² 22,5 km/h (4 Bft) 100,00 %
04.02.2026 09:26 2,9 °C 2,8 °C -0,6 °C 98 % 999,6 hPa 0,0 l/m² 0 min 0 min 38 W/m² 19,3 km/h (3 Bft) 96,30 %
04.02.2026 09:28 2,9 °C 2,8 °C -0,6 °C 98 % 999,6 hPa 0,0 l/m² 0 min 0 min 40 W/m² 25,7 km/h (4 Bft) 100,00 %
04.02.2026 09:30 2,9 °C 2,8 °C -0,6 °C 98 % 999,6 hPa 0,0 l/m² 0 min 0 min 41 W/m² 12,9 km/h (3 Bft) 97,87 %
04.02.2026 09:32 2,9 °C 2,8 °C -0,6 °C 98 % 999,7 hPa 0,0 l/m² 0 min 0 min 41 W/m² 22,5 km/h (4 Bft) 96,00 %
04.02.2026 09:34 2,9 °C 2,8 °C -0,6 °C 98 % 999,7 hPa 0,0 l/m² 0 min 0 min 43 W/m² 16,1 km/h (3 Bft) 97,87 %
04.02.2026 09:36 2,9 °C 2,8 °C -0,6 °C 98 % 999,6 hPa 0,0 l/m² 0 min 0 min 45 W/m² 16,1 km/h (3 Bft) 95,65 %
04.02.2026 09:38 2,9 °C 2,8 °C -0,6 °C 98 % 999,6 hPa 0,0 l/m² 0 min 0 min 32 W/m² 22,5 km/h (4 Bft) 97,62 %
04.02.2026 09:40 2,9 °C 2,8 °C -0,6 °C 98 % 999,6 hPa 0,0 l/m² 0 min 0 min 27 W/m² 16,1 km/h (3 Bft) 91,49 %
04.02.2026 09:42 2,9 °C 2,8 °C -0,6 °C 98 % 999,6 hPa 0,0 l/m² 0 min 0 min 35 W/m² 19,3 km/h (3 Bft) 91,49 %
04.02.2026 09:44 2,9 °C 2,8 °C -0,6 °C 98 % 999,6 hPa 0,0 l/m² 0 min 0 min 42 W/m² 22,5 km/h (4 Bft) 91,49 %
04.02.2026 09:46 2,9 °C 2,8 °C -0,6 °C 98 % 999,6 hPa 0,0 l/m² 0 min 0 min 46 W/m² 19,3 km/h (3 Bft) 91,49 %
04.02.2026 09:48 2,9 °C 2,8 °C -0,6 °C 98 % 999,6 hPa 0,0 l/m² 0 min 0 min 43 W/m² 12,9 km/h (3 Bft) 90,00 %
04.02.2026 09:50 2,9 °C 2,8 °C -0,6 °C 98 % 999,6 hPa 0,0 l/m² 0 min 0 min 39 W/m² 16,1 km/h (3 Bft) 93,48 %
04.02.2026 09:52 2,9 °C 2,8 °C -0,6 °C 98 % 999,6 hPa 0,0 l/m² 0 min 0 min 33 W/m² 16,1 km/h (3 Bft) 93,75 %
04.02.2026 09:54 2,9 °C 2,8 °C -0,6 °C 98 % 999,6 hPa 0,0 l/m² 0 min 0 min 37 W/m² 12,9 km/h (3 Bft) 91,67 %
04.02.2026 09:56 2,9 °C 2,8 °C -0,6 °C 98 % 999,6 hPa 0,0 l/m² 0 min 0 min 55 W/m² 12,9 km/h (3 Bft) 91,49 %
04.02.2026 09:58 2,9 °C 2,8 °C -0,6 °C 98 % 999,6 hPa 0,0 l/m² 0 min 0 min 69 W/m² 12,9 km/h (3 Bft) 91,49 %
04.02.2026 10:00 2,9 °C 3,3 °C -0,6 °C 98 % 999,6 hPa 0,0 l/m² 0 min 0 min 85 W/m² 16,1 km/h (3 Bft) 93,48 %
04.02.2026 10:02 2,9 °C 3,3 °C -0,6 °C 98 % 999,6 hPa 0,0 l/m² 0 min 0 min 101 W/m² 12,9 km/h (3 Bft) 93,62 %
04.02.2026 10:04 3,0 °C 3,3 °C -0,6 °C 98 % 999,6 hPa 0,0 l/m² 2 min 0 min 133 W/m² 16,1 km/h (3 Bft) 95,83 %
04.02.2026 10:06 3,1 °C 3,9 °C 0,0 °C 98 % 999,5 hPa 0,0 l/m² 2 min 0 min 140 W/m² 9,7 km/h (2 Bft) 95,74 %
04.02.2026 10:08 3,1 °C 4,4 °C 0,0 °C 98 % 999,6 hPa 0,0 l/m² 2 min 0 min 173 W/m² 12,9 km/h (3 Bft) 97,14 %
04.02.2026 10:10 3,2 °C 4,4 °C 0,0 °C 98 % 999,6 hPa 0,0 l/m² 2 min 0 min 132 W/m² 16,1 km/h (3 Bft) 96,30 %
04.02.2026 10:12 3,3 °C 4,4 °C 0,0 °C 98 % 999,5 hPa 0,0 l/m² 0 min 0 min 65 W/m² 19,3 km/h (3 Bft) 95,83 %
04.02.2026 10:14 3,4 °C 3,9 °C 0,0 °C 98 % 999,6 hPa 0,0 l/m² 0 min 0 min 64 W/m² 16,1 km/h (3 Bft) 95,65 %
04.02.2026 10:16 3,4 °C 4,4 °C 0,0 °C 98 % 999,5 hPa 0,0 l/m² 0 min 0 min 126 W/m² 16,1 km/h (3 Bft) 91,67 %
04.02.2026 10:18 3,5 °C 4,4 °C 0,0 °C 98 % 999,5 hPa 0,0 l/m² 0 min 0 min 95 W/m² 16,1 km/h (3 Bft) 95,74 %
04.02.2026 10:20 3,6 °C 5,6 °C 0,0 °C 98 % 999,5 hPa 0,0 l/m² 2 min 0 min 181 W/m² 16,1 km/h (3 Bft) 95,74 %
04.02.2026 10:22 3,7 °C 6,1 °C 0,6 °C 98 % 999,5 hPa 0,0 l/m² 2 min 0 min 210 W/m² 19,3 km/h (3 Bft) 95,83 %
04.02.2026 10:24 3,7 °C 5,6 °C 0,6 °C 98 % 999,5 hPa 0,0 l/m² 0 min 0 min 128 W/m² 19,3 km/h (3 Bft) 95,65 %
04.02.2026 10:26 3,8 °C 5,0 °C 0,6 °C 98 % 999,5 hPa 0,0 l/m² 0 min 0 min 119 W/m² 12,9 km/h (3 Bft) 95,92 %
04.02.2026 10:28 3,8 °C 5,0 °C 0,6 °C 98 % 999,4 hPa 0,0 l/m² 0 min 0 min 113 W/m² 19,3 km/h (3 Bft) 97,87 %
04.02.2026 10:30 3,8 °C 6,1 °C 0,6 °C 98 % 999,4 hPa 0,0 l/m² 2 min 0 min 154 W/m² 16,1 km/h (3 Bft) 95,74 %
04.02.2026 10:32 3,8 °C 7,2 °C 0,6 °C 98 % 999,4 hPa 0,0 l/m² 2 min 0 min 200 W/m² 19,3 km/h (3 Bft) 97,87 %
04.02.2026 10:34 3,9 °C 7,8 °C 0,6 °C 98 % 999,3 hPa 0,0 l/m² 2 min 0 min 239 W/m² 25,7 km/h (4 Bft) 94,29 %
04.02.2026 10:36 4,0 °C 8,9 °C 1,1 °C 98 % 999,3 hPa 0,0 l/m² 2 min 0 min 274 W/m² 16,1 km/h (3 Bft) 95,74 %
04.02.2026 10:38 4,1 °C 9,4 °C 1,1 °C 98 % 999,3 hPa 0,0 l/m² 2 min 0 min 328 W/m² 16,1 km/h (3 Bft) 98,11 %
04.02.2026 10:40 4,2 °C 7,8 °C 1,1 °C 98 % 999,3 hPa 0,0 l/m² 2 min 0 min 214 W/m² 19,3 km/h (3 Bft) 97,92 %
04.02.2026 10:42 4,3 °C 6,7 °C 1,1 °C 98 % 999,4 hPa 0,0 l/m² 0 min 0 min 106 W/m² 12,9 km/h (3 Bft) 97,92 %
04.02.2026 10:44 4,3 °C 6,7 °C 1,1 °C 98 % 999,4 hPa 0,0 l/m² 0 min 0 min 98 W/m² 25,7 km/h (4 Bft) 97,87 %
04.02.2026 10:46 4,3 °C 8,9 °C 1,1 °C 98 % 999,4 hPa 0,0 l/m² 2 min 0 min 205 W/m² 22,5 km/h (4 Bft) 100,00 %
04.02.2026 10:48 4,4 °C 10,6 °C 1,1 °C 98 % 999,4 hPa 0,0 l/m² 2 min 0 min 309 W/m² 16,1 km/h (3 Bft) 100,00 %
04.02.2026 10:50 4,6 °C 11,1 °C 1,1 °C 98 % 999,3 hPa 0,0 l/m² 2 min 0 min 303 W/m² 19,3 km/h (3 Bft) 100,00 %
04.02.2026 10:52 4,7 °C 10,6 °C 1,1 °C 98 % 999,3 hPa 0,0 l/m² 2 min 0 min 301 W/m² 19,3 km/h (3 Bft) 100,00 %
04.02.2026 10:54 4,7 °C 11,1 °C 1,1 °C 98 % 999,4 hPa 0,0 l/m² 2 min 0 min 300 W/m² 16,1 km/h (3 Bft) 100,00 %
04.02.2026 10:56 4,8 °C 11,7 °C 1,1 °C 98 % 999,3 hPa 0,0 l/m² 2 min 0 min 305 W/m² 25,7 km/h (4 Bft) 100,00 %
04.02.2026 10:58 4,9 °C 12,2 °C 1,1 °C 98 % 999,3 hPa 0,0 l/m² 2 min 0 min 315 W/m² 16,1 km/h (3 Bft) 100,00 %
04.02.2026 11:00 4,9 °C 12,2 °C 1,1 °C 98 % 999,3 hPa 0,0 l/m² 2 min 0 min 321 W/m² 19,3 km/h (3 Bft) 100,00 %
04.02.2026 11:02 5,1 °C 12,8 °C 1,7 °C 98 % 999,3 hPa 0,0 l/m² 2 min 0 min 321 W/m² 16,1 km/h (3 Bft) 100,00 %
04.02.2026 11:04 5,1 °C 12,8 °C 1,7 °C 98 % 999,3 hPa 0,0 l/m² 2 min 0 min 314 W/m² 16,1 km/h (3 Bft) 100,00 %
04.02.2026 11:06 5,2 °C 12,8 °C 1,7 °C 98 % 999,2 hPa 0,0 l/m² 2 min 0 min 314 W/m² 29,0 km/h (5 Bft) 100,00 %
04.02.2026 11:08 5,3 °C 13,3 °C 1,7 °C 98 % 999,2 hPa 0,0 l/m² 2 min 0 min 317 W/m² 12,9 km/h (3 Bft) 100,00 %
04.02.2026 11:13 5,6 °C 13,9 °C 1,7 °C 98 % 999,2 hPa 0,0 l/m² 5 min 0 min 324 W/m² 12,9 km/h (3 Bft) 99,22 %
04.02.2026 11:16 5,7 °C 14,4 °C 1,7 °C 98 % 999,2 hPa 0,0 l/m² 3 min 0 min 328 W/m² 16,1 km/h (3 Bft) 100,00 %
04.02.2026 11:18 5,8 °C 13,3 °C 1,7 °C 98 % 999,2 hPa 0,0 l/m² 2 min 0 min 330 W/m² 19,3 km/h (3 Bft) 100,00 %
04.02.2026 11:20 5,8 °C 13,9 °C 2,2 °C 98 % 999,1 hPa 0,0 l/m² 2 min 0 min 335 W/m² 16,1 km/h (3 Bft) 100,00 %
04.02.2026 11:22 5,9 °C 13,9 °C 2,2 °C 98 % 999,2 hPa 0,0 l/m² 2 min 0 min 338 W/m² 19,3 km/h (3 Bft) 97,87 %
04.02.2026 11:24 6,1 °C 15,0 °C 2,2 °C 98 % 999,2 hPa 0,0 l/m² 2 min 0 min 341 W/m² 9,7 km/h (2 Bft) 100,00 %
04.02.2026 11:26 6,1 °C 15,0 °C 2,2 °C 98 % 999,1 hPa 0,0 l/m² 2 min 0 min 344 W/m² 12,9 km/h (3 Bft) 100,00 %
04.02.2026 11:28 6,3 °C 15,6 °C 2,2 °C 97 % 999,1 hPa 0,0 l/m² 2 min 0 min 346 W/m² 12,9 km/h (3 Bft) 100,00 %
04.02.2026 11:30 6,3 °C 15,6 °C 2,2 °C 97 % 999,1 hPa 0,0 l/m² 2 min 0 min 349 W/m² 16,1 km/h (3 Bft) 100,00 %
04.02.2026 11:32 6,5 °C 16,1 °C 2,8 °C 97 % 999,1 hPa 0,0 l/m² 2 min 0 min 350 W/m² 16,1 km/h (3 Bft) 97,87 %
04.02.2026 11:34 6,5 °C 15,6 °C 2,8 °C 97 % 999,2 hPa 0,0 l/m² 2 min 0 min 353 W/m² 16,1 km/h (3 Bft) 97,92 %
04.02.2026 11:36 6,6 °C 15,0 °C 2,8 °C 96 % 999,1 hPa 0,0 l/m² 2 min 0 min 356 W/m² 16,1 km/h (3 Bft) 100,00 %
04.02.2026 11:38 6,7 °C 14,4 °C 2,8 °C 96 % 999,2 hPa 0,0 l/m² 2 min 0 min 357 W/m² 19,3 km/h (3 Bft) 100,00 %
04.02.2026 11:40 6,8 °C 14,4 °C 2,8 °C 96 % 999,2 hPa 0,0 l/m² 2 min 0 min 360 W/m² 16,1 km/h (3 Bft) 93,62 %
04.02.2026 11:42 6,9 °C 14,4 °C 2,8 °C 95 % 999,2 hPa 0,0 l/m² 2 min 0 min 361 W/m² 16,1 km/h (3 Bft) 97,14 %
04.02.2026 11:44 7,0 °C 14,4 °C 2,8 °C 94 % 999,1 hPa 0,0 l/m² 2 min 0 min 363 W/m² 16,1 km/h (3 Bft) 98,28 %
04.02.2026 11:46 7,1 °C 13,9 °C 2,8 °C 94 % 999,2 hPa 0,0 l/m² 2 min 0 min 365 W/m² 19,3 km/h (3 Bft) 95,83 %
04.02.2026 11:48 7,1 °C 13,9 °C 2,8 °C 92 % 999,1 hPa 0,0 l/m² 2 min 0 min 367 W/m² 22,5 km/h (4 Bft) 95,74 %
04.02.2026 11:50 7,2 °C 13,3 °C 2,8 °C 92 % 999,1 hPa 0,0 l/m² 2 min 0 min 369 W/m² 19,3 km/h (3 Bft) 97,30 %
04.02.2026 11:52 7,2 °C 13,9 °C 2,8 °C 91 % 999,2 hPa 0,0 l/m² 2 min 0 min 370 W/m² 19,3 km/h (3 Bft) 95,74 %
04.02.2026 11:54 7,3 °C 12,2 °C 2,8 °C 90 % 999,2 hPa 0,0 l/m² 2 min 0 min 337 W/m² 16,1 km/h (3 Bft) 100,00 %
04.02.2026 11:56 7,3 °C 12,2 °C 2,8 °C 90 % 999,2 hPa 0,0 l/m² 2 min 0 min 261 W/m² 16,1 km/h (3 Bft) 97,87 %
04.02.2026 11:58 7,3 °C 12,8 °C 2,8 °C 89 % 999,2 hPa 0,0 l/m² 2 min 0 min 251 W/m² 16,1 km/h (3 Bft) 100,00 %
04.02.2026 12:00 7,3 °C 13,3 °C 2,8 °C 88 % 999,1 hPa 0,0 l/m² 2 min 0 min 226 W/m² 16,1 km/h (3 Bft) 97,92 %
04.02.2026 12:02 7,3 °C 12,8 °C 2,8 °C 88 % 999,1 hPa 0,0 l/m² 0 min 0 min 169 W/m² 19,3 km/h (3 Bft) 93,62 %
04.02.2026 12:04 7,3 °C 12,2 °C 2,8 °C 88 % 999,1 hPa 0,0 l/m² 0 min 0 min 72 W/m² 16,1 km/h (3 Bft) 96,00 %
04.02.2026 12:08 7,4 °C 11,1 °C 2,8 °C 87 % 999,1 hPa 0,0 l/m² 0 min 0 min 58 W/m² 19,3 km/h (3 Bft) 94,12 %
04.02.2026 12:10 7,4 °C 10,0 °C 2,8 °C 87 % 999,1 hPa 0,0 l/m² 0 min 0 min 54 W/m² 19,3 km/h (3 Bft) 100,00 %
04.02.2026 12:12 7,4 °C 8,9 °C 2,8 °C 87 % 999,1 hPa 0,0 l/m² 0 min 0 min 68 W/m² 12,9 km/h (3 Bft) 100,00 %
04.02.2026 12:16 7,5 °C 9,4 °C 2,8 °C 87 % 999,0 hPa 0,0 l/m² 0 min 0 min 177 W/m² 16,1 km/h (3 Bft) 99,02 %
04.02.2026 12:18 7,6 °C 10,6 °C 2,8 °C 86 % 999,0 hPa 0,0 l/m² 0 min 0 min 104 W/m² 16,1 km/h (3 Bft) 100,00 %
04.02.2026 12:20 7,6 °C 10,0 °C 2,8 °C 86 % 998,9 hPa 0,0 l/m² 2 min 0 min 210 W/m² 16,1 km/h (3 Bft) 100,00 %
04.02.2026 12:22 7,6 °C 10,6 °C 2,8 °C 86 % 998,8 hPa 0,0 l/m² 2 min 0 min 244 W/m² 12,9 km/h (3 Bft) 100,00 %
04.02.2026 12:24 7,6 °C 10,6 °C 2,8 °C 86 % 998,9 hPa 0,0 l/m² 2 min 0 min 357 W/m² 12,9 km/h (3 Bft) 100,00 %
04.02.2026 12:26 7,6 °C 10,6 °C 3,3 °C 86 % 998,9 hPa 0,0 l/m² 2 min 0 min 386 W/m² 16,1 km/h (3 Bft) 97,87 %
04.02.2026 12:28 7,7 °C 12,2 °C 3,3 °C 86 % 998,8 hPa 0,0 l/m² 2 min 0 min 389 W/m² 16,1 km/h (3 Bft) 97,87 %
04.02.2026 12:30 7,8 °C 12,8 °C 3,3 °C 86 % 998,8 hPa 0,0 l/m² 2 min 0 min 391 W/m² 12,9 km/h (3 Bft) 97,87 %
04.02.2026 12:32 7,8 °C 12,2 °C 3,3 °C 86 % 998,8 hPa 0,0 l/m² 2 min 0 min 392 W/m² 16,1 km/h (3 Bft) 94,64 %
04.02.2026 12:34 7,9 °C 12,8 °C 3,3 °C 86 % 998,8 hPa 0,0 l/m² 2 min 0 min 393 W/m² 16,1 km/h (3 Bft) 95,65 %
04.02.2026 12:36 7,9 °C 12,2 °C 3,3 °C 86 % 998,8 hPa 0,0 l/m² 2 min 0 min 394 W/m² 19,3 km/h (3 Bft) 97,92 %
04.02.2026 12:38 8,0 °C 12,8 °C 3,3 °C 85 % 998,7 hPa 0,0 l/m² 2 min 0 min 393 W/m² 19,3 km/h (3 Bft) 100,00 %
04.02.2026 12:40 8,1 °C 14,4 °C 3,3 °C 85 % 998,7 hPa 0,0 l/m² 2 min 0 min 395 W/m² 16,1 km/h (3 Bft) 97,87 %
04.02.2026 12:42 8,1 °C 14,4 °C 3,3 °C 85 % 998,7 hPa 0,0 l/m² 2 min 0 min 396 W/m² 16,1 km/h (3 Bft) 93,62 %
04.02.2026 12:44 8,2 °C 16,1 °C 3,3 °C 85 % 998,6 hPa 0,0 l/m² 2 min 0 min 397 W/m² 12,9 km/h (3 Bft) 97,87 %
04.02.2026 12:46 8,3 °C 16,7 °C 3,9 °C 85 % 998,6 hPa 0,0 l/m² 2 min 0 min 396 W/m² 12,9 km/h (3 Bft) 93,48 %
04.02.2026 12:48 8,4 °C 16,7 °C 3,9 °C 85 % 998,6 hPa 0,0 l/m² 2 min 0 min 397 W/m² 12,9 km/h (3 Bft) 98,21 %
04.02.2026 12:50 8,5 °C 16,7 °C 3,9 °C 84 % 998,6 hPa 0,0 l/m² 2 min 0 min 397 W/m² 12,9 km/h (3 Bft) 93,88 %
04.02.2026 12:52 8,6 °C 16,7 °C 3,9 °C 84 % 998,6 hPa 0,0 l/m² 2 min 0 min 397 W/m² 12,9 km/h (3 Bft) 94,44 %
04.02.2026 12:54 8,7 °C 17,2 °C 3,9 °C 84 % 998,5 hPa 0,0 l/m² 2 min 0 min 397 W/m² 22,5 km/h (4 Bft) 95,74 %
04.02.2026 12:56 8,8 °C 16,7 °C 3,9 °C 84 % 998,5 hPa 0,0 l/m² 2 min 0 min 397 W/m² 19,3 km/h (3 Bft) 97,87 %
04.02.2026 12:58 8,9 °C 17,8 °C 3,9 °C 83 % 998,5 hPa 0,0 l/m² 2 min 0 min 397 W/m² 12,9 km/h (3 Bft) 97,83 %
04.02.2026 13:00 9,0 °C 16,7 °C 4,4 °C 83 % 998,5 hPa 0,0 l/m² 2 min 0 min 399 W/m² 22,5 km/h (4 Bft) 96,30 %
04.02.2026 13:02 9,1 °C 16,7 °C 4,4 °C 82 % 998,5 hPa 0,0 l/m² 2 min 0 min 399 W/m² 19,3 km/h (3 Bft) 97,92 %
04.02.2026 13:04 9,2 °C 17,2 °C 4,4 °C 82 % 998,4 hPa 0,0 l/m² 2 min 0 min 398 W/m² 16,1 km/h (3 Bft) 98,00 %
04.02.2026 13:06 9,3 °C 17,8 °C 4,4 °C 81 % 998,4 hPa 0,0 l/m² 2 min 0 min 398 W/m² 16,1 km/h (3 Bft) 94,34 %
04.02.2026 13:08 9,4 °C 17,2 °C 4,4 °C 81 % 998,4 hPa 0,0 l/m² 2 min 0 min 399 W/m² 16,1 km/h (3 Bft) 100,00 %
04.02.2026 13:10 9,5 °C 17,2 °C 4,4 °C 80 % 998,3 hPa 0,0 l/m² 2 min 0 min 394 W/m² 16,1 km/h (3 Bft) 97,87 %
04.02.2026 13:12 9,6 °C 16,7 °C 4,4 °C 80 % 998,4 hPa 0,0 l/m² 2 min 0 min 393 W/m² 19,3 km/h (3 Bft) 100,00 %
04.02.2026 13:14 9,7 °C 16,7 °C 4,4 °C 80 % 998,4 hPa 0,0 l/m² 2 min 0 min 395 W/m² 9,7 km/h (2 Bft) 100,00 %
04.02.2026 13:16 9,7 °C 16,7 °C 4,4 °C 79 % 998,3 hPa 0,0 l/m² 2 min 0 min 396 W/m² 19,3 km/h (3 Bft) 97,87 %
04.02.2026 13:18 9,8 °C 17,2 °C 4,4 °C 79 % 998,2 hPa 0,0 l/m² 2 min 0 min 394 W/m² 12,9 km/h (3 Bft) 100,00 %
04.02.2026 13:20 9,8 °C 17,8 °C 4,4 °C 79 % 998,2 hPa 0,0 l/m² 2 min 0 min 395 W/m² 19,3 km/h (3 Bft) 100,00 %
04.02.2026 13:22 10,0 °C 17,8 °C 4,4 °C 79 % 998,1 hPa 0,0 l/m² 2 min 0 min 394 W/m² 9,7 km/h (2 Bft) 100,00 %
04.02.2026 13:24 10,1 °C 17,8 °C 4,4 °C 79 % 998,1 hPa 0,0 l/m² 2 min 0 min 393 W/m² 19,3 km/h (3 Bft) 100,00 %
04.02.2026 13:26 10,2 °C 17,8 °C 4,4 °C 79 % 998,1 hPa 0,0 l/m² 2 min 0 min 392 W/m² 25,7 km/h (4 Bft) 97,87 %
04.02.2026 13:28 10,3 °C 18,3 °C 4,4 °C 79 % 998,0 hPa 0,0 l/m² 2 min 0 min 388 W/m² 9,7 km/h (2 Bft) 97,92 %
04.02.2026 13:30 10,4 °C 18,9 °C 5,0 °C 78 % 998,0 hPa 0,0 l/m² 2 min 0 min 388 W/m² 12,9 km/h (3 Bft) 97,92 %
04.02.2026 13:32 10,4 °C 18,3 °C 5,0 °C 78 % 998,0 hPa 0,0 l/m² 2 min 0 min 387 W/m² 16,1 km/h (3 Bft) 100,00 %
04.02.2026 13:34 10,5 °C 18,3 °C 5,0 °C 78 % 997,9 hPa 0,0 l/m² 2 min 0 min 385 W/m² 16,1 km/h (3 Bft) 100,00 %
04.02.2026 13:36 10,6 °C 17,8 °C 5,0 °C 78 % 997,9 hPa 0,0 l/m² 2 min 0 min 385 W/m² 19,3 km/h (3 Bft) 97,92 %
04.02.2026 13:38 10,6 °C 17,8 °C 5,0 °C 77 % 997,9 hPa 0,0 l/m² 2 min 0 min 384 W/m² 12,9 km/h (3 Bft) 95,74 %
04.02.2026 13:40 10,6 °C 17,2 °C 5,0 °C 77 % 997,9 hPa 0,0 l/m² 2 min 0 min 382 W/m² 16,1 km/h (3 Bft) 97,92 %
04.02.2026 13:42 10,7 °C 17,2 °C 5,0 °C 77 % 997,9 hPa 0,0 l/m² 2 min 0 min 381 W/m² 22,5 km/h (4 Bft) 97,83 %
04.02.2026 13:44 10,7 °C 16,7 °C 5,0 °C 76 % 997,8 hPa 0,0 l/m² 2 min 0 min 377 W/m² 19,3 km/h (3 Bft) 97,92 %
04.02.2026 13:46 10,7 °C 17,2 °C 5,0 °C 76 % 997,8 hPa 0,0 l/m² 2 min 0 min 378 W/m² 16,1 km/h (3 Bft) 97,87 %
04.02.2026 13:48 10,8 °C 16,7 °C 5,0 °C 76 % 997,8 hPa 0,0 l/m² 2 min 0 min 378 W/m² 16,1 km/h (3 Bft) 97,87 %
04.02.2026 13:50 10,8 °C 16,1 °C 5,0 °C 76 % 997,7 hPa 0,0 l/m² 2 min 0 min 374 W/m² 19,3 km/h (3 Bft) 97,87 %
04.02.2026 13:52 10,8 °C 15,6 °C 5,0 °C 76 % 997,7 hPa 0,0 l/m² 2 min 0 min 368 W/m² 19,3 km/h (3 Bft) 97,14 %
04.02.2026 13:54 10,8 °C 15,6 °C 5,0 °C 75 % 997,7 hPa 0,0 l/m² 2 min 0 min 364 W/m² 16,1 km/h (3 Bft) 98,18 %
04.02.2026 13:56 10,8 °C 15,0 °C 5,0 °C 75 % 997,7 hPa 0,0 l/m² 2 min 0 min 369 W/m² 22,5 km/h (4 Bft) 97,87 %
04.02.2026 13:58 10,7 °C 14,4 °C 5,0 °C 75 % 997,7 hPa 0,0 l/m² 2 min 0 min 367 W/m² 16,1 km/h (3 Bft) 97,92 %
04.02.2026 14:00 10,7 °C 14,4 °C 5,0 °C 75 % 997,6 hPa 0,0 l/m² 2 min 0 min 364 W/m² 19,3 km/h (3 Bft) 97,92 %
04.02.2026 14:02 10,8 °C 15,0 °C 5,0 °C 76 % 997,6 hPa 0,0 l/m² 2 min 0 min 363 W/m² 19,3 km/h (3 Bft) 91,49 %
04.02.2026 14:04 10,8 °C 15,0 °C 5,0 °C 75 % 997,6 hPa 0,0 l/m² 2 min 0 min 358 W/m² 12,9 km/h (3 Bft) 97,92 %
04.02.2026 14:06 10,8 °C 15,6 °C 5,0 °C 75 % 997,5 hPa 0,0 l/m² 2 min 0 min 342 W/m² 19,3 km/h (3 Bft) 97,87 %
04.02.2026 14:08 10,8 °C 15,6 °C 5,0 °C 75 % 997,5 hPa 0,0 l/m² 2 min 0 min 357 W/m² 16,1 km/h (3 Bft) 97,62 %
04.02.2026 14:10 10,8 °C 15,6 °C 5,0 °C 75 % 997,5 hPa 0,0 l/m² 2 min 0 min 357 W/m² 19,3 km/h (3 Bft) 98,00 %
04.02.2026 14:12 10,9 °C 16,1 °C 5,0 °C 76 % 997,4 hPa 0,0 l/m² 2 min 0 min 350 W/m² 16,1 km/h (3 Bft) 97,96 %
04.02.2026 14:14 11,0 °C 15,6 °C 5,0 °C 75 % 997,4 hPa 0,0 l/m² 2 min 0 min 338 W/m² 16,1 km/h (3 Bft) 95,83 %
04.02.2026 14:16 11,1 °C 15,0 °C 5,0 °C 75 % 997,5 hPa 0,0 l/m² 2 min 0 min 331 W/m² 16,1 km/h (3 Bft) 97,14 %
04.02.2026 14:18 11,1 °C 15,0 °C 5,6 °C 75 % 997,4 hPa 0,0 l/m² 2 min 0 min 335 W/m² 16,1 km/h (3 Bft) 97,87 %
04.02.2026 14:20 11,1 °C 15,6 °C 5,0 °C 75 % 997,4 hPa 0,0 l/m² 2 min 0 min 331 W/m² 12,9 km/h (3 Bft) 98,08 %
04.02.2026 14:22 11,1 °C 15,0 °C 5,6 °C 75 % 997,4 hPa 0,0 l/m² 2 min 0 min 328 W/m² 22,5 km/h (4 Bft) 95,92 %
04.02.2026 14:24 11,2 °C 15,0 °C 5,0 °C 75 % 997,4 hPa 0,0 l/m² 2 min 0 min 307 W/m² 16,1 km/h (3 Bft) 95,83 %
04.02.2026 14:26 11,2 °C 15,6 °C 5,0 °C 75 % 997,3 hPa 0,0 l/m² 2 min 0 min 298 W/m² 19,3 km/h (3 Bft) 97,92 %
04.02.2026 14:28 11,2 °C 15,0 °C 5,6 °C 75 % 997,3 hPa 0,0 l/m² 2 min 0 min 305 W/m² 19,3 km/h (3 Bft) 97,30 %
04.02.2026 14:30 11,2 °C 14,4 °C 5,6 °C 74 % 997,3 hPa 0,0 l/m² 2 min 0 min 292 W/m² 16,1 km/h (3 Bft) 97,87 %
04.02.2026 14:32 11,2 °C 15,0 °C 5,6 °C 74 % 997,3 hPa 0,0 l/m² 2 min 0 min 289 W/m² 12,9 km/h (3 Bft) 97,83 %
04.02.2026 14:34 11,2 °C 15,0 °C 5,6 °C 74 % 997,2 hPa 0,0 l/m² 2 min 0 min 289 W/m² 19,3 km/h (3 Bft) 100,00 %
04.02.2026 14:36 11,2 °C 13,9 °C 5,6 °C 74 % 997,2 hPa 0,0 l/m² 2 min 0 min 271 W/m² 19,3 km/h (3 Bft) 100,00 %
04.02.2026 14:38 11,2 °C 14,4 °C 5,6 °C 73 % 997,2 hPa 0,0 l/m² 2 min 0 min 277 W/m² 12,9 km/h (3 Bft) 100,00 %
04.02.2026 14:40 11,2 °C 14,4 °C 5,6 °C 74 % 997,1 hPa 0,0 l/m² 2 min 0 min 280 W/m² 19,3 km/h (3 Bft) 100,00 %
04.02.2026 14:42 11,2 °C 14,4 °C 5,6 °C 73 % 997,0 hPa 0,0 l/m² 2 min 0 min 279 W/m² 12,9 km/h (3 Bft) 97,87 %
04.02.2026 14:44 11,3 °C 14,4 °C 5,6 °C 74 % 997,0 hPa 0,0 l/m² 2 min 0 min 264 W/m² 19,3 km/h (3 Bft) 100,00 %
04.02.2026 14:46 11,3 °C 14,4 °C 5,6 °C 74 % 997,0 hPa 0,0 l/m² 2 min 0 min 244 W/m² 16,1 km/h (3 Bft) 97,87 %
04.02.2026 14:48 11,3 °C 13,9 °C 5,6 °C 74 % 997,0 hPa 0,0 l/m² 2 min 0 min 233 W/m² 16,1 km/h (3 Bft) 100,00 %
04.02.2026 14:50 11,3 °C 13,9 °C 5,6 °C 73 % 997,0 hPa 0,0 l/m² 2 min 0 min 222 W/m² 16,1 km/h (3 Bft) 100,00 %
04.02.2026 14:52 11,3 °C 13,9 °C 5,6 °C 73 % 997,0 hPa 0,0 l/m² 2 min 0 min 229 W/m² 12,9 km/h (3 Bft) 100,00 %
04.02.2026 14:54 11,3 °C 13,9 °C 5,6 °C 73 % 997,0 hPa 0,0 l/m² 2 min 0 min 248 W/m² 25,7 km/h (4 Bft) 100,00 %
04.02.2026 14:56 11,2 °C 13,9 °C 5,6 °C 72 % 997,0 hPa 0,0 l/m² 2 min 0 min 248 W/m² 22,5 km/h (4 Bft) 95,65 %
04.02.2026 14:58 11,2 °C 13,9 °C 5,6 °C 72 % 997,0 hPa 0,0 l/m² 2 min 0 min 222 W/m² 22,5 km/h (4 Bft) 100,00 %
04.02.2026 15:00 11,2 °C 13,3 °C 5,6 °C 72 % 997,0 hPa 0,0 l/m² 2 min 0 min 197 W/m² 19,3 km/h (3 Bft) 98,15 %
04.02.2026 15:02 11,2 °C 13,9 °C 5,6 °C 73 % 997,0 hPa 0,0 l/m² 2 min 0 min 231 W/m² 16,1 km/h (3 Bft) 100,00 %
04.02.2026 15:04 11,2 °C 13,9 °C 5,6 °C 72 % 997,0 hPa 0,0 l/m² 2 min 0 min 237 W/m² 25,7 km/h (4 Bft) 95,74 %
04.02.2026 15:06 11,2 °C 13,9 °C 5,6 °C 72 % 997,0 hPa 0,0 l/m² 2 min 0 min 224 W/m² 19,3 km/h (3 Bft) 98,11 %
04.02.2026 15:08 11,2 °C 13,3 °C 5,6 °C 72 % 997,0 hPa 0,0 l/m² 2 min 0 min 201 W/m² 12,9 km/h (3 Bft) 94,44 %
04.02.2026 15:10 11,2 °C 13,3 °C 5,6 °C 73 % 996,9 hPa 0,0 l/m² 2 min 0 min 203 W/m² 16,1 km/h (3 Bft) 95,74 %
04.02.2026 15:12 11,2 °C 13,3 °C 5,6 °C 73 % 996,9 hPa 0,0 l/m² 2 min 0 min 193 W/m² 12,9 km/h (3 Bft) 92,45 %
04.02.2026 15:14 11,2 °C 12,8 °C 5,6 °C 73 % 996,8 hPa 0,0 l/m² 2 min 0 min 147 W/m² 12,9 km/h (3 Bft) 94,12 %
04.02.2026 15:16 11,1 °C 12,8 °C 5,0 °C 73 % 996,9 hPa 0,0 l/m² 2 min 0 min 156 W/m² 16,1 km/h (3 Bft) 97,22 %
04.02.2026 15:18 11,1 °C 12,2 °C 5,0 °C 73 % 996,8 hPa 0,0 l/m² 2 min 0 min 148 W/m² 19,3 km/h (3 Bft) 91,38 %
04.02.2026 15:20 11,1 °C 12,2 °C 5,0 °C 73 % 996,8 hPa 0,0 l/m² 2 min 0 min 161 W/m² 22,5 km/h (4 Bft) 97,14 %
04.02.2026 15:22 11,1 °C 12,2 °C 5,6 °C 73 % 996,8 hPa 0,0 l/m² 2 min 0 min 156 W/m² 12,9 km/h (3 Bft) 94,92 %
04.02.2026 15:24 11,0 °C 12,2 °C 5,0 °C 73 % 996,8 hPa 0,0 l/m² 2 min 0 min 149 W/m² 6,4 km/h (2 Bft) 94,29 %
04.02.2026 15:26 11,0 °C 12,2 °C 5,0 °C 74 % 996,8 hPa 0,0 l/m² 2 min 0 min 137 W/m² 12,9 km/h (3 Bft) 94,83 %
04.02.2026 15:28 10,9 °C 11,7 °C 5,0 °C 75 % 996,8 hPa 0,0 l/m² 2 min 0 min 134 W/m² 16,1 km/h (3 Bft) 97,22 %
04.02.2026 15:30 10,9 °C 11,1 °C 5,0 °C 74 % 996,8 hPa 0,0 l/m² 2 min 0 min 132 W/m² 12,9 km/h (3 Bft) 93,10 %
04.02.2026 15:32 10,8 °C 10,6 °C 5,0 °C 74 % 996,7 hPa 0,0 l/m² 2 min 0 min 125 W/m² 12,9 km/h (3 Bft) 95,74 %
04.02.2026 15:34 10,8 °C 10,6 °C 5,0 °C 74 % 996,7 hPa 0,0 l/m² 2 min 0 min 123 W/m² 12,9 km/h (3 Bft) 94,29 %
04.02.2026 15:36 10,7 °C 10,0 °C 5,0 °C 74 % 996,8 hPa 0,0 l/m² 2 min 0 min 118 W/m² 16,1 km/h (3 Bft) 94,92 %
04.02.2026 15:38 10,6 °C 10,0 °C 5,0 °C 74 % 996,8 hPa 0,0 l/m² 0 min 0 min 114 W/m² 16,1 km/h (3 Bft) 95,65 %
04.02.2026 15:40 10,6 °C 10,0 °C 5,0 °C 74 % 996,7 hPa 0,0 l/m² 2 min 0 min 113 W/m² 9,7 km/h (2 Bft) 94,44 %
04.02.2026 15:42 10,6 °C 10,0 °C 5,0 °C 75 % 996,7 hPa 0,0 l/m² 0 min 0 min 107 W/m² 6,4 km/h (2 Bft) 95,65 %
04.02.2026 15:44 10,4 °C 10,0 °C 5,0 °C 75 % 996,6 hPa 0,0 l/m² 0 min 0 min 105 W/m² 9,7 km/h (2 Bft) 95,74 %
04.02.2026 15:46 10,4 °C 10,0 °C 5,0 °C 75 % 996,7 hPa 0,0 l/m² 0 min 0 min 106 W/m² 6,4 km/h (2 Bft) 95,74 %
04.02.2026 15:48 10,3 °C 10,0 °C 5,0 °C 75 % 996,6 hPa 0,0 l/m² 0 min 0 min 100 W/m² 12,9 km/h (3 Bft) 93,62 %
04.02.2026 15:50 10,3 °C 10,0 °C 5,0 °C 75 % 996,6 hPa 0,0 l/m² 0 min 0 min 95 W/m² 6,4 km/h (2 Bft) 95,74 %
04.02.2026 15:52 10,3 °C 10,0 °C 5,0 °C 75 % 996,6 hPa 0,0 l/m² 0 min 0 min 96 W/m² 12,9 km/h (3 Bft) 93,62 %
04.02.2026 15:54 10,2 °C 10,0 °C 5,0 °C 76 % 996,6 hPa 0,0 l/m² 0 min 0 min 97 W/m² 12,9 km/h (3 Bft) 97,83 %
04.02.2026 15:56 10,2 °C 10,0 °C 5,0 °C 76 % 996,6 hPa 0,0 l/m² 0 min 0 min 95 W/m² 12,9 km/h (3 Bft) 100,00 %
04.02.2026 15:58 10,2 °C 10,0 °C 5,0 °C 76 % 996,5 hPa 0,0 l/m² 0 min 0 min 94 W/m² 12,9 km/h (3 Bft) 97,87 %
04.02.2026 16:00 10,1 °C 10,0 °C 5,0 °C 76 % 996,5 hPa 0,0 l/m² 0 min 0 min 85 W/m² 12,9 km/h (3 Bft) 100,00 %
04.02.2026 16:02 10,1 °C 10,0 °C 5,0 °C 76 % 996,5 hPa 0,0 l/m² 0 min 0 min 78 W/m² 6,4 km/h (2 Bft) 98,28 %
04.02.2026 16:04 10,1 °C 10,0 °C 4,4 °C 76 % 996,5 hPa 0,0 l/m² 0 min 0 min 76 W/m² 12,9 km/h (3 Bft) 97,87 %
04.02.2026 16:06 10,1 °C 9,4 °C 4,4 °C 76 % 996,4 hPa 0,0 l/m² 0 min 0 min 75 W/m² 6,4 km/h (2 Bft) 97,87 %
04.02.2026 16:08 10,1 °C 9,4 °C 4,4 °C 77 % 996,5 hPa 0,0 l/m² 0 min 0 min 74 W/m² 6,4 km/h (2 Bft) 100,00 %
04.02.2026 16:10 10,0 °C 9,4 °C 4,4 °C 77 % 996,5 hPa 0,0 l/m² 0 min 0 min 72 W/m² 6,4 km/h (2 Bft) 94,29 %
04.02.2026 16:12 9,9 °C 9,4 °C 4,4 °C 77 % 996,5 hPa 0,0 l/m² 0 min 0 min 70 W/m² 9,7 km/h (2 Bft) 97,87 %
04.02.2026 16:14 9,9 °C 9,4 °C 4,4 °C 77 % 996,5 hPa 0,0 l/m² 0 min 0 min 68 W/m² 12,9 km/h (3 Bft) 100,00 %
04.02.2026 16:16 9,9 °C 9,4 °C 4,4 °C 77 % 996,5 hPa 0,0 l/m² 0 min 0 min 66 W/m² 9,7 km/h (2 Bft) 97,83 %
04.02.2026 16:18 9,9 °C 9,4 °C 4,4 °C 77 % 996,5 hPa 0,0 l/m² 0 min 0 min 63 W/m² 12,9 km/h (3 Bft) 100,00 %
04.02.2026 16:20 9,8 °C 9,4 °C 4,4 °C 77 % 996,5 hPa 0,0 l/m² 0 min 0 min 62 W/m² 12,9 km/h (3 Bft) 97,87 %
04.02.2026 16:22 9,8 °C 9,4 °C 4,4 °C 77 % 996,5 hPa 0,0 l/m² 0 min 0 min 59 W/m² 12,9 km/h (3 Bft) 97,87 %
04.02.2026 16:24 9,8 °C 9,4 °C 4,4 °C 77 % 996,5 hPa 0,0 l/m² 0 min 0 min 56 W/m² 12,9 km/h (3 Bft) 100,00 %
04.02.2026 16:26 9,7 °C 9,4 °C 4,4 °C 77 % 996,4 hPa 0,0 l/m² 0 min 0 min 54 W/m² 9,7 km/h (2 Bft) 100,00 %
04.02.2026 16:28 9,7 °C 8,9 °C 4,4 °C 77 % 996,4 hPa 0,0 l/m² 0 min 0 min 53 W/m² 6,4 km/h (2 Bft) 100,00 %
04.02.2026 16:30 9,7 °C 8,9 °C 4,4 °C 77 % 996,4 hPa 0,0 l/m² 0 min 0 min 50 W/m² 12,9 km/h (3 Bft) 100,00 %
04.02.2026 16:32 9,7 °C 8,9 °C 4,4 °C 77 % 996,3 hPa 0,0 l/m² 0 min 0 min 49 W/m² 6,4 km/h (2 Bft) 97,87 %
04.02.2026 16:34 9,6 °C 8,9 °C 4,4 °C 78 % 996,3 hPa 0,0 l/m² 0 min 0 min 47 W/m² 12,9 km/h (3 Bft) 100,00 %
04.02.2026 16:36 9,6 °C 8,9 °C 4,4 °C 78 % 996,3 hPa 0,0 l/m² 0 min 0 min 46 W/m² 6,4 km/h (2 Bft) 97,87 %
04.02.2026 16:38 9,6 °C 8,9 °C 4,4 °C 78 % 996,3 hPa 0,0 l/m² 0 min 0 min 43 W/m² 6,4 km/h (2 Bft) 97,87 %
04.02.2026 16:40 9,6 °C 8,9 °C 4,4 °C 78 % 996,3 hPa 0,0 l/m² 0 min 0 min 41 W/m² 6,4 km/h (2 Bft) 93,48 %
04.02.2026 16:42 9,5 °C 8,9 °C 4,4 °C 78 % 996,3 hPa 0,0 l/m² 0 min 0 min 38 W/m² 6,4 km/h (2 Bft) 97,87 %
04.02.2026 16:44 9,4 °C 8,3 °C 3,9 °C 78 % 996,3 hPa 0,0 l/m² 0 min 0 min 34 W/m² 3,2 km/h (1 Bft) 97,87 %
04.02.2026 16:46 9,4 °C 8,3 °C 3,9 °C 78 % 996,4 hPa 0,0 l/m² 0 min 0 min 32 W/m² 3,2 km/h (1 Bft) 97,87 %
04.02.2026 16:48 9,4 °C 8,3 °C 3,9 °C 79 % 996,4 hPa 0,0 l/m² 0 min 0 min 30 W/m² 3,2 km/h (1 Bft) 95,74 %
04.02.2026 16:50 9,4 °C 8,3 °C 3,9 °C 79 % 996,3 hPa 0,0 l/m² 0 min 0 min 27 W/m² 3,2 km/h (1 Bft) 97,87 %
04.02.2026 16:52 9,3 °C 8,3 °C 3,9 °C 79 % 996,4 hPa 0,0 l/m² 0 min 0 min 25 W/m² 3,2 km/h (1 Bft) 97,83 %
04.02.2026 16:54 9,3 °C 8,3 °C 3,3 °C 79 % 996,4 hPa 0,0 l/m² 0 min 0 min 23 W/m² 3,2 km/h (1 Bft) 97,87 %
04.02.2026 16:56 9,3 °C 7,8 °C 3,3 °C 79 % 996,4 hPa 0,0 l/m² 0 min 0 min 21 W/m² 6,4 km/h (2 Bft) 97,87 %
04.02.2026 16:58 9,2 °C 7,8 °C 3,3 °C 79 % 996,3 hPa 0,0 l/m² 0 min 0 min 19 W/m² 6,4 km/h (2 Bft) 97,87 %
04.02.2026 17:00 9,2 °C 7,8 °C 3,3 °C 79 % 996,4 hPa 0,0 l/m² 0 min 0 min 18 W/m² 6,4 km/h (2 Bft) 97,87 %
04.02.2026 17:02 9,1 °C 7,8 °C 3,3 °C 79 % 996,4 hPa 0,0 l/m² 0 min 0 min 17 W/m² 12,9 km/h (3 Bft) 91,49 %
04.02.2026 17:04 9,1 °C 7,8 °C 3,3 °C 79 % 996,4 hPa 0,0 l/m² 0 min 0 min 15 W/m² 12,9 km/h (3 Bft) 97,83 %
04.02.2026 17:06 9,0 °C 7,8 °C 3,3 °C 79 % 996,4 hPa 0,0 l/m² 0 min 0 min 14 W/m² 9,7 km/h (2 Bft) 96,61 %
04.02.2026 17:08 9,0 °C 7,8 °C 3,3 °C 79 % 996,3 hPa 0,0 l/m² 0 min 0 min 13 W/m² 6,4 km/h (2 Bft) 97,14 %
04.02.2026 17:10 8,9 °C 7,8 °C 3,3 °C 79 % 996,4 hPa 0,0 l/m² 0 min 0 min 12 W/m² 9,7 km/h (2 Bft) 100,00 %
04.02.2026 17:12 8,9 °C 7,8 °C 3,3 °C 79 % 996,4 hPa 0,0 l/m² 0 min 0 min 11 W/m² 9,7 km/h (2 Bft) 100,00 %
04.02.2026 17:14 8,8 °C 7,8 °C 3,3 °C 79 % 996,3 hPa 0,0 l/m² 0 min 0 min 11 W/m² 6,4 km/h (2 Bft) 93,48 %
04.02.2026 17:16 8,8 °C 7,8 °C 3,3 °C 79 % 996,3 hPa 0,0 l/m² 0 min 0 min 10 W/m² 6,4 km/h (2 Bft) 100,00 %
04.02.2026 17:18 8,8 °C 7,8 °C 3,3 °C 79 % 996,3 hPa 0,0 l/m² 0 min 0 min 9 W/m² 6,4 km/h (2 Bft) 100,00 %
04.02.2026 17:20 8,8 °C 7,8 °C 3,3 °C 79 % 996,3 hPa 0,0 l/m² 0 min 0 min 7 W/m² 6,4 km/h (2 Bft) 100,00 %
04.02.2026 17:22 8,7 °C 7,8 °C 3,3 °C 79 % 996,3 hPa 0,0 l/m² 0 min 0 min 6 W/m² 6,4 km/h (2 Bft) 100,00 %
04.02.2026 17:24 8,7 °C 7,8 °C 3,3 °C 79 % 996,3 hPa 0,0 l/m² 0 min 0 min 5 W/m² 6,4 km/h (2 Bft) 97,87 %
04.02.2026 17:26 8,7 °C 7,8 °C 3,3 °C 79 % 996,3 hPa 0,0 l/m² 0 min 0 min 4 W/m² 6,4 km/h (2 Bft) 100,00 %
04.02.2026 17:28 8,7 °C 7,8 °C 3,3 °C 79 % 996,3 hPa 0,0 l/m² 0 min 0 min 0 W/m² 12,9 km/h (3 Bft) 100,00 %
04.02.2026 17:30 8,6 °C 7,8 °C 3,3 °C 80 % 996,3 hPa 0,0 l/m² 0 min 0 min 0 W/m² 12,9 km/h (3 Bft) 95,74 %
04.02.2026 17:32 8,6 °C 7,8 °C 3,3 °C 80 % 996,3 hPa 0,0 l/m² 0 min 0 min 0 W/m² 6,4 km/h (2 Bft) 100,00 %
04.02.2026 17:34 8,6 °C 7,8 °C 3,3 °C 80 % 996,4 hPa 0,0 l/m² 0 min 0 min 0 W/m² 6,4 km/h (2 Bft) 97,87 %
04.02.2026 17:36 8,6 °C 7,2 °C 3,3 °C 79 % 996,3 hPa 0,0 l/m² 0 min 0 min 0 W/m² 12,9 km/h (3 Bft) 97,87 %
04.02.2026 17:38 8,5 °C 7,2 °C 3,3 °C 80 % 996,4 hPa 0,0 l/m² 0 min 0 min 0 W/m² 12,9 km/h (3 Bft) 100,00 %
04.02.2026 17:40 8,5 °C 7,2 °C 3,3 °C 80 % 996,4 hPa 0,0 l/m² 0 min 0 min 0 W/m² 6,4 km/h (2 Bft) 97,87 %
04.02.2026 17:42 8,4 °C 7,2 °C 3,3 °C 80 % 996,5 hPa 0,0 l/m² 0 min 0 min 0 W/m² 6,4 km/h (2 Bft) 97,87 %
04.02.2026 17:44 8,4 °C 7,2 °C 3,3 °C 80 % 996,4 hPa 0,0 l/m² 0 min 0 min 0 W/m² 3,2 km/h (1 Bft) 97,87 %
04.02.2026 17:46 8,4 °C 7,2 °C 3,3 °C 80 % 996,4 hPa 0,0 l/m² 0 min 0 min 0 W/m² 6,4 km/h (2 Bft) 95,74 %
04.02.2026 17:48 8,4 °C 7,2 °C 3,3 °C 80 % 996,4 hPa 0,0 l/m² 0 min 0 min 0 W/m² 12,9 km/h (3 Bft) 97,87 %
04.02.2026 17:50 8,3 °C 7,2 °C 3,3 °C 80 % 996,4 hPa 0,0 l/m² 0 min 0 min 0 W/m² 12,9 km/h (3 Bft) 97,83 %
04.02.2026 17:52 8,3 °C 7,2 °C 2,8 °C 80 % 996,4 hPa 0,0 l/m² 0 min 0 min 0 W/m² 6,4 km/h (2 Bft) 97,87 %
04.02.2026 17:54 8,3 °C 7,2 °C 2,8 °C 80 % 996,5 hPa 0,0 l/m² 0 min 0 min 0 W/m² 6,4 km/h (2 Bft) 97,87 %
04.02.2026 17:56 8,2 °C 7,2 °C 2,8 °C 80 % 996,5 hPa 0,0 l/m² 0 min 0 min 0 W/m² 6,4 km/h (2 Bft) 97,87 %
04.02.2026 17:58 8,2 °C 7,2 °C 2,8 °C 80 % 996,4 hPa 0,0 l/m² 0 min 0 min 0 W/m² 3,2 km/h (1 Bft) 95,74 %
04.02.2026 18:00 8,2 °C 6,7 °C 2,8 °C 81 % 996,4 hPa 0,0 l/m² 0 min 0 min 0 W/m² 6,4 km/h (2 Bft) 95,74 %
04.02.2026 18:02 8,1 °C 6,7 °C 2,8 °C 81 % 996,5 hPa 0,0 l/m² 0 min 0 min 0 W/m² 6,4 km/h (2 Bft) 95,65 %
04.02.2026 18:04 8,1 °C 6,7 °C 2,8 °C 81 % 996,5 hPa 0,0 l/m² 0 min 0 min 0 W/m² 6,4 km/h (2 Bft) 95,74 %
04.02.2026 18:07 8,0 °C 6,7 °C 2,8 °C 81 % 996,5 hPa 0,0 l/m² 0 min 0 min 0 W/m² 6,4 km/h (2 Bft) 94,44 %
04.02.2026 18:08 8,0 °C 6,7 °C 2,8 °C 81 % 996,5 hPa 0,0 l/m² 0 min 0 min 0 W/m² 3,2 km/h (1 Bft) 91,67 %
04.02.2026 18:12 7,9 °C 6,7 °C 2,8 °C 81 % 996,5 hPa 0,0 l/m² 0 min 0 min 0 W/m² 6,4 km/h (2 Bft) 94,23 %
04.02.2026 18:14 7,9 °C 6,7 °C 2,8 °C 82 % 996,4 hPa 0,0 l/m² 0 min 0 min 0 W/m² 6,4 km/h (2 Bft) 93,62 %
04.02.2026 18:16 7,9 °C 6,7 °C 2,8 °C 82 % 996,4 hPa 0,0 l/m² 0 min 0 min 0 W/m² 6,4 km/h (2 Bft) 96,30 %
04.02.2026 18:18 7,8 °C 6,7 °C 2,8 °C 82 % 996,4 hPa 0,0 l/m² 0 min 0 min 0 W/m² 3,2 km/h (1 Bft) 92,11 %
04.02.2026 18:20 7,8 °C 6,7 °C 2,8 °C 82 % 996,5 hPa 0,0 l/m² 0 min 0 min 0 W/m² 6,4 km/h (2 Bft) 95,92 %
04.02.2026 18:22 7,8 °C 6,7 °C 2,8 °C 82 % 996,4 hPa 0,0 l/m² 0 min 0 min 0 W/m² 6,4 km/h (2 Bft) 91,49 %
04.02.2026 18:24 7,8 °C 6,7 °C 2,8 °C 82 % 996,4 hPa 0,0 l/m² 0 min 0 min 0 W/m² 3,2 km/h (1 Bft) 95,65 %
04.02.2026 18:26 7,8 °C 6,7 °C 2,8 °C 82 % 996,4 hPa 0,0 l/m² 0 min 0 min 0 W/m² 3,2 km/h (1 Bft) 96,30 %
04.02.2026 18:28 7,7 °C 6,7 °C 2,2 °C 82 % 996,3 hPa 0,0 l/m² 0 min 0 min 0 W/m² 3,2 km/h (1 Bft) 94,74 %
04.02.2026 18:30 7,7 °C 6,7 °C 2,2 °C 82 % 996,3 hPa 0,0 l/m² 0 min 0 min 0 W/m² 0,0 km/h (0 Bft) 95,92 %
04.02.2026 18:32 7,7 °C 6,7 °C 2,2 °C 82 % 996,3 hPa 0,0 l/m² 0 min 0 min 0 W/m² 0,0 km/h (0 Bft) 95,74 %
04.02.2026 18:34 7,7 °C 6,7 °C 2,2 °C 82 % 996,3 hPa 0,0 l/m² 0 min 0 min 0 W/m² 0,0 km/h (0 Bft) 93,62 %
04.02.2026 18:36 7,7 °C 6,7 °C 2,2 °C 82 % 996,3 hPa 0,0 l/m² 0 min 0 min 0 W/m² 0,0 km/h (0 Bft) 94,34 %
04.02.2026 18:38 7,7 °C 6,1 °C 2,2 °C 82 % 996,3 hPa 0,0 l/m² 0 min 0 min 0 W/m² 0,0 km/h (0 Bft) 97,37 %
04.02.2026 18:40 7,6 °C 6,1 °C 2,2 °C 82 % 996,2 hPa 0,0 l/m² 0 min 0 min 0 W/m² 0,0 km/h (0 Bft) 93,88 %
04.02.2026 18:42 7,6 °C 6,1 °C 1,7 °C 82 % 996,3 hPa 0,0 l/m² 0 min 0 min 0 W/m² 0,0 km/h (0 Bft) 93,62 %
04.02.2026 18:44 7,6 °C 5,6 °C 1,7 °C 82 % 996,2 hPa 0,0 l/m² 0 min 0 min 0 W/m² 0,0 km/h (0 Bft) 95,74 %
04.02.2026 18:46 7,6 °C 5,6 °C 1,7 °C 82 % 996,2 hPa 0,0 l/m² 0 min 0 min 0 W/m² 0,0 km/h (0 Bft) 95,65 %
04.02.2026 18:48 7,5 °C 5,6 °C 1,7 °C 82 % 996,2 hPa 0,0 l/m² 0 min 0 min 0 W/m² 0,0 km/h (0 Bft) 95,74 %
04.02.2026 18:50 7,5 °C 5,6 °C 1,7 °C 82 % 996,2 hPa 0,0 l/m² 0 min 0 min 0 W/m² 0,0 km/h (0 Bft) 97,87 %
04.02.2026 18:52 7,4 °C 5,6 °C 1,7 °C 82 % 996,1 hPa 0,0 l/m² 0 min 0 min 0 W/m² 0,0 km/h (0 Bft) 95,74 %
04.02.2026 18:54 7,4 °C 5,6 °C 1,1 °C 82 % 996,1 hPa 0,0 l/m² 0 min 0 min 0 W/m² 0,0 km/h (0 Bft) 97,87 %
04.02.2026 18:56 7,4 °C 5,6 °C 1,1 °C 82 % 996,1 hPa 0,0 l/m² 0 min 0 min 0 W/m² 0,0 km/h (0 Bft) 97,87 %
04.02.2026 18:58 7,3 °C 5,0 °C 1,1 °C 82 % 996,1 hPa 0,0 l/m² 0 min 0 min 0 W/m² 0,0 km/h (0 Bft) 97,83 %
04.02.2026 19:00 7,3 °C 5,0 °C 1,1 °C 82 % 996,1 hPa 0,0 l/m² 0 min 0 min 0 W/m² 0,0 km/h (0 Bft) 100,00 %
04.02.2026 19:02 7,2 °C 5,0 °C 1,1 °C 82 % 996,0 hPa 0,0 l/m² 0 min 0 min 0 W/m² 0,0 km/h (0 Bft) 100,00 %
04.02.2026 19:04 7,2 °C 5,0 °C 1,1 °C 82 % 996,0 hPa 0,0 l/m² 0 min 0 min 0 W/m² 0,0 km/h (0 Bft) 100,00 %
04.02.2026 19:06 7,1 °C 5,0 °C 1,1 °C 83 % 996,1 hPa 0,0 l/m² 0 min 0 min 0 W/m² 3,2 km/h (1 Bft) 95,74 %
04.02.2026 19:08 7,1 °C 5,0 °C 1,1 °C 83 % 996,1 hPa 0,0 l/m² 0 min 0 min 0 W/m² 0,0 km/h (0 Bft) 100,00 %
04.02.2026 19:10 7,0 °C 5,0 °C 1,1 °C 83 % 996,1 hPa 0,0 l/m² 0 min 0 min 0 W/m² 0,0 km/h (0 Bft) 100,00 %
04.02.2026 19:12 6,9 °C 5,0 °C 1,1 °C 83 % 996,1 hPa 0,0 l/m² 0 min 0 min 0 W/m² 0,0 km/h (0 Bft) 100,00 %
04.02.2026 19:14 6,8 °C 5,0 °C 1,1 °C 83 % 996,0 hPa 0,0 l/m² 0 min 0 min 0 W/m² 0,0 km/h (0 Bft) 100,00 %
04.02.2026 19:16 6,8 °C 5,0 °C 0,6 °C 83 % 996,0 hPa 0,0 l/m² 0 min 0 min 0 W/m² 0,0 km/h (0 Bft) 97,87 %
04.02.2026 19:18 6,8 °C 4,4 °C 0,6 °C 83 % 996,0 hPa 0,0 l/m² 0 min 0 min 0 W/m² 0,0 km/h (0 Bft) 96,23 %
04.02.2026 19:20 6,7 °C 4,4 °C 0,6 °C 84 % 996,0 hPa 0,0 l/m² 0 min 0 min 0 W/m² 0,0 km/h (0 Bft) 97,37 %
04.02.2026 19:22 6,7 °C 4,4 °C 0,6 °C 84 % 995,9 hPa 0,0 l/m² 0 min 0 min 0 W/m² 0,0 km/h (0 Bft) 100,00 %
04.02.2026 19:24 6,6 °C 4,4 °C 0,6 °C 84 % 995,9 hPa 0,0 l/m² 0 min 0 min 0 W/m² 0,0 km/h (0 Bft) 98,44 %
04.02.2026 19:26 6,6 °C 4,4 °C 0,6 °C 84 % 995,9 hPa 0,0 l/m² 0 min 0 min 0 W/m² 0,0 km/h (0 Bft) 97,37 %
04.02.2026 19:28 6,6 °C 4,4 °C 0,6 °C 84 % 995,9 hPa 0,0 l/m² 0 min 0 min 0 W/m² 0,0 km/h (0 Bft) 98,00 %
04.02.2026 19:30 6,5 °C 4,4 °C 0,6 °C 84 % 995,9 hPa 0,0 l/m² 0 min 0 min 0 W/m² 0,0 km/h (0 Bft) 100,00 %
04.02.2026 19:32 6,5 °C 4,4 °C 0,6 °C 84 % 995,8 hPa 0,0 l/m² 0 min 0 min 0 W/m² 0,0 km/h (0 Bft) 98,08 %
04.02.2026 19:34 6,4 °C 4,4 °C 0,6 °C 84 % 995,8 hPa 0,0 l/m² 0 min 0 min 0 W/m² 0,0 km/h (0 Bft) 100,00 %
04.02.2026 19:36 6,4 °C 4,4 °C 0,6 °C 84 % 995,8 hPa 0,0 l/m² 0 min 0 min 0 W/m² 0,0 km/h (0 Bft) 100,00 %
04.02.2026 19:38 6,3 °C 4,4 °C 0,6 °C 85 % 995,8 hPa 0,0 l/m² 0 min 0 min 0 W/m² 0,0 km/h (0 Bft) 98,00 %
04.02.2026 19:40 6,3 °C 4,4 °C 0,6 °C 84 % 995,8 hPa 0,0 l/m² 0 min 0 min 0 W/m² 0,0 km/h (0 Bft) 100,00 %
04.02.2026 19:42 6,2 °C 4,4 °C 0,6 °C 85 % 995,8 hPa 0,0 l/m² 0 min 0 min 0 W/m² 0,0 km/h (0 Bft) 96,23 %
04.02.2026 19:44 6,2 °C 4,4 °C 0,0 °C 85 % 995,8 hPa 0,0 l/m² 0 min 0 min 0 W/m² 0,0 km/h (0 Bft) 100,00 %
04.02.2026 19:46 6,1 °C 3,9 °C 0,0 °C 85 % 995,8 hPa 0,0 l/m² 0 min 0 min 0 W/m² 0,0 km/h (0 Bft) 95,74 %
04.02.2026 19:48 6,1 °C 3,9 °C 0,0 °C 85 % 995,8 hPa 0,0 l/m² 0 min 0 min 0 W/m² 0,0 km/h (0 Bft) 95,92 %
04.02.2026 19:50 6,1 °C 3,9 °C 0,0 °C 85 % 995,8 hPa 0,0 l/m² 0 min 0 min 0 W/m² 3,2 km/h (1 Bft) 98,11 %
04.02.2026 19:52 6,0 °C 3,9 °C 0,0 °C 85 % 995,8 hPa 0,0 l/m² 0 min 0 min 0 W/m² 3,2 km/h (1 Bft) 100,00 %
04.02.2026 19:54 5,9 °C 3,9 °C 0,6 °C 85 % 995,8 hPa 0,0 l/m² 0 min 0 min 0 W/m² 3,2 km/h (1 Bft) 94,74 %
04.02.2026 19:56 5,9 °C 4,4 °C 0,6 °C 86 % 995,7 hPa 0,0 l/m² 0 min 0 min 0 W/m² 3,2 km/h (1 Bft) 100,00 %
04.02.2026 19:58 5,8 °C 4,4 °C 0,6 °C 86 % 995,7 hPa 0,0 l/m² 0 min 0 min 0 W/m² 6,4 km/h (2 Bft) 97,87 %
04.02.2026 20:00 5,8 °C 4,4 °C 0,6 °C 86 % 995,7 hPa 0,0 l/m² 0 min 0 min 0 W/m² 3,2 km/h (1 Bft) 95,74 %
04.02.2026 20:02 5,7 °C 4,4 °C 0,6 °C 87 % 995,7 hPa 0,0 l/m² 0 min 0 min 0 W/m² 3,2 km/h (1 Bft) 98,11 %
04.02.2026 20:04 5,8 °C 4,4 °C 0,6 °C 87 % 995,7 hPa 0,0 l/m² 0 min 0 min 0 W/m² 3,2 km/h (1 Bft) 97,37 %
04.02.2026 20:06 5,7 °C 4,4 °C 0,6 °C 87 % 995,7 hPa 0,0 l/m² 0 min 0 min 0 W/m² 3,2 km/h (1 Bft) 96,72 %
04.02.2026 20:08 5,7 °C 4,4 °C 0,6 °C 87 % 995,6 hPa 0,0 l/m² 0 min 0 min 0 W/m² 3,2 km/h (1 Bft) 88,89 %
04.02.2026 20:10 5,7 °C 4,4 °C 1,1 °C 87 % 995,6 hPa 0,0 l/m² 0 min 0 min 0 W/m² 6,4 km/h (2 Bft) 95,92 %
04.02.2026 20:12 5,7 °C 4,4 °C 1,1 °C 88 % 995,6 hPa 0,0 l/m² 0 min 0 min 0 W/m² 6,4 km/h (2 Bft) 93,75 %
04.02.2026 20:14 5,7 °C 5,0 °C 1,1 °C 88 % 995,6 hPa 0,0 l/m² 0 min 0 min 0 W/m² 9,7 km/h (2 Bft) 97,14 %
04.02.2026 20:16 5,7 °C 5,0 °C 1,1 °C 88 % 995,6 hPa 0,0 l/m² 0 min 0 min 0 W/m² 9,7 km/h (2 Bft) 96,36 %
04.02.2026 20:18 5,8 °C 5,0 °C 1,1 °C 89 % 995,6 hPa 0,0 l/m² 0 min 0 min 0 W/m² 6,4 km/h (2 Bft) 94,00 %
04.02.2026 20:20 5,7 °C 5,0 °C 1,1 °C 89 % 995,6 hPa 0,0 l/m² 0 min 0 min 0 W/m² 9,7 km/h (2 Bft) 97,87 %
04.02.2026 20:22 5,8 °C 5,0 °C 1,1 °C 89 % 995,6 hPa 0,0 l/m² 0 min 0 min 0 W/m² 16,1 km/h (3 Bft) 100,00 %
04.02.2026 20:24 5,8 °C 5,0 °C 1,1 °C 89 % 995,6 hPa 0,0 l/m² 0 min 0 min 0 W/m² 6,4 km/h (2 Bft) 90,91 %
04.02.2026 20:26 5,7 °C 4,4 °C 1,1 °C 89 % 995,5 hPa 0,0 l/m² 0 min 0 min 0 W/m² 9,7 km/h (2 Bft) 96,00 %
04.02.2026 20:28 5,7 °C 4,4 °C 1,1 °C 89 % 995,5 hPa 0,0 l/m² 0 min 0 min 0 W/m² 12,9 km/h (3 Bft) 95,83 %
04.02.2026 20:30 5,7 °C 4,4 °C 1,1 °C 89 % 995,5 hPa 0,0 l/m² 0 min 0 min 0 W/m² 6,4 km/h (2 Bft) 91,43 %
04.02.2026 20:32 5,7 °C 4,4 °C 1,1 °C 89 % 995,4 hPa 0,0 l/m² 0 min 0 min 0 W/m² 9,7 km/h (2 Bft) 96,36 %
04.02.2026 20:34 5,7 °C 4,4 °C 1,1 °C 89 % 995,4 hPa 0,0 l/m² 0 min 0 min 0 W/m² 6,4 km/h (2 Bft) 95,92 %
04.02.2026 20:36 5,7 °C 4,4 °C 1,1 °C 90 % 995,4 hPa 0,0 l/m² 0 min 0 min 0 W/m² 9,7 km/h (2 Bft) 95,83 %
04.02.2026 20:38 5,6 °C 4,4 °C 1,1 °C 90 % 995,4 hPa 0,0 l/m² 0 min 0 min 0 W/m² 6,4 km/h (2 Bft) 97,14 %
04.02.2026 20:40 5,6 °C 4,4 °C 1,1 °C 90 % 995,5 hPa 0,0 l/m² 0 min 0 min 0 W/m² 16,1 km/h (3 Bft) 98,18 %
04.02.2026 20:42 5,6 °C 4,4 °C 0,6 °C 90 % 995,4 hPa 0,0 l/m² 0 min 0 min 0 W/m² 6,4 km/h (2 Bft) 97,87 %
04.02.2026 20:44 5,5 °C 4,4 °C 0,6 °C 90 % 995,4 hPa 0,0 l/m² 0 min 0 min 0 W/m² 9,7 km/h (2 Bft) 95,92 %
04.02.2026 20:46 5,5 °C 4,4 °C 0,6 °C 90 % 995,4 hPa 0,0 l/m² 0 min 0 min 0 W/m² 9,7 km/h (2 Bft) 97,92 %
04.02.2026 20:48 5,4 °C 4,4 °C 0,6 °C 90 % 995,4 hPa 0,0 l/m² 0 min 0 min 0 W/m² 6,4 km/h (2 Bft) 97,14 %
04.02.2026 20:50 5,4 °C 4,4 °C 0,6 °C 90 % 995,4 hPa 0,0 l/m² 0 min 0 min 0 W/m² 9,7 km/h (2 Bft) 100,00 %
04.02.2026 20:52 5,4 °C 4,4 °C 0,6 °C 90 % 995,4 hPa 0,0 l/m² 0 min 0 min 0 W/m² 9,7 km/h (2 Bft) 98,00 %
04.02.2026 20:54 5,3 °C 4,4 °C 0,6 °C 90 % 995,4 hPa 0,0 l/m² 0 min 0 min 0 W/m² 6,4 km/h (2 Bft) 97,87 %
04.02.2026 20:56 5,3 °C 4,4 °C 0,6 °C 90 % 995,3 hPa 0,0 l/m² 0 min 0 min 0 W/m² 9,7 km/h (2 Bft) 100,00 %
04.02.2026 20:58 5,3 °C 4,4 °C 0,6 °C 90 % 995,4 hPa 0,0 l/m² 0 min 0 min 0 W/m² 12,9 km/h (3 Bft) 97,87 %
04.02.2026 21:00 5,3 °C 4,4 °C 0,6 °C 90 % 995,3 hPa 0,0 l/m² 0 min 0 min 0 W/m² 9,7 km/h (2 Bft) 100,00 %
04.02.2026 21:02 5,2 °C 4,4 °C 0,6 °C 90 % 995,3 hPa 0,0 l/m² 0 min 0 min 0 W/m² 16,1 km/h (3 Bft) 100,00 %
04.02.2026 21:04 5,2 °C 4,4 °C 0,6 °C 90 % 995,3 hPa 0,0 l/m² 0 min 0 min 0 W/m² 9,7 km/h (2 Bft) 95,83 %
04.02.2026 21:06 5,2 °C 4,4 °C 0,6 °C 90 % 995,4 hPa 0,0 l/m² 0 min 0 min 0 W/m² 9,7 km/h (2 Bft) 97,83 %
04.02.2026 21:08 5,2 °C 3,9 °C 0,6 °C 90 % 995,4 hPa 0,0 l/m² 0 min 0 min 0 W/m² 6,4 km/h (2 Bft) 100,00 %
04.02.2026 21:10 5,1 °C 3,9 °C 0,6 °C 90 % 995,3 hPa 0,0 l/m² 0 min 0 min 0 W/m² 6,4 km/h (2 Bft) 97,14 %
04.02.2026 21:12 5,1 °C 3,9 °C 0,6 °C 90 % 995,4 hPa 0,0 l/m² 0 min 0 min 0 W/m² 6,4 km/h (2 Bft) 97,87 %
04.02.2026 21:14 5,1 °C 3,9 °C 0,6 °C 90 % 995,4 hPa 0,0 l/m² 0 min 0 min 0 W/m² 6,4 km/h (2 Bft) 93,62 %
04.02.2026 21:16 5,0 °C 3,9 °C 0,0 °C 90 % 995,4 hPa 0,0 l/m² 0 min 0 min 0 W/m² 9,7 km/h (2 Bft) 97,87 %
04.02.2026 21:18 4,9 °C 3,9 °C 0,0 °C 90 % 995,2 hPa 0,0 l/m² 0 min 0 min 0 W/m² 12,9 km/h (3 Bft) 95,74 %
04.02.2026 21:20 4,9 °C 3,9 °C 0,0 °C 90 % 995,2 hPa 0,0 l/m² 0 min 0 min 0 W/m² 9,7 km/h (2 Bft) 95,65 %
04.02.2026 21:22 4,8 °C 3,9 °C 0,0 °C 90 % 995,1 hPa 0,0 l/m² 0 min 0 min 0 W/m² 9,7 km/h (2 Bft) 97,87 %
04.02.2026 21:24 4,8 °C 3,9 °C 0,0 °C 90 % 995,1 hPa 0,0 l/m² 0 min 0 min 0 W/m² 12,9 km/h (3 Bft) 97,87 %
04.02.2026 21:26 4,7 °C 3,9 °C 0,0 °C 90 % 995,1 hPa 0,0 l/m² 0 min 0 min 0 W/m² 12,9 km/h (3 Bft) 97,87 %
04.02.2026 21:28 4,7 °C 3,9 °C 0,0 °C 90 % 995,2 hPa 0,0 l/m² 0 min 0 min 0 W/m² 9,7 km/h (2 Bft) 97,87 %
04.02.2026 21:30 4,7 °C 3,9 °C 0,0 °C 90 % 995,2 hPa 0,0 l/m² 0 min 0 min 0 W/m² 6,4 km/h (2 Bft) 97,87 %
04.02.2026 21:32 4,7 °C 3,3 °C 0,0 °C 90 % 995,1 hPa 0,0 l/m² 0 min 0 min 0 W/m² 9,7 km/h (2 Bft) 97,83 %
04.02.2026 21:34 4,6 °C 3,3 °C 0,0 °C 90 % 995,1 hPa 0,0 l/m² 0 min 0 min 0 W/m² 6,4 km/h (2 Bft) 97,87 %
04.02.2026 21:36 4,6 °C 3,3 °C 0,0 °C 90 % 995,0 hPa 0,0 l/m² 0 min 0 min 0 W/m² 12,9 km/h (3 Bft) 95,74 %
04.02.2026 21:38 4,6 °C 3,3 °C 0,0 °C 90 % 995,0 hPa 0,0 l/m² 0 min 0 min 0 W/m² 9,7 km/h (2 Bft) 97,87 %
04.02.2026 21:40 4,5 °C 3,3 °C 0,0 °C 90 % 995,0 hPa 0,0 l/m² 0 min 0 min 0 W/m² 9,7 km/h (2 Bft) 97,87 %
04.02.2026 21:42 4,4 °C 3,3 °C 0,0 °C 90 % 995,0 hPa 0,0 l/m² 0 min 0 min 0 W/m² 9,7 km/h (2 Bft) 97,87 %
04.02.2026 21:44 4,3 °C 3,3 °C 0,0 °C 90 % 995,0 hPa 0,0 l/m² 0 min 0 min 0 W/m² 9,7 km/h (2 Bft) 95,65 %
04.02.2026 21:46 4,3 °C 3,3 °C 0,0 °C 90 % 995,0 hPa 0,0 l/m² 0 min 0 min 0 W/m² 16,1 km/h (3 Bft) 97,87 %
04.02.2026 21:48 4,3 °C 3,3 °C 0,0 °C 90 % 995,0 hPa 0,0 l/m² 0 min 0 min 0 W/m² 12,9 km/h (3 Bft) 97,87 %
04.02.2026 21:50 4,2 °C 3,3 °C -0,6 °C 90 % 995,0 hPa 0,0 l/m² 0 min 0 min 0 W/m² 16,1 km/h (3 Bft) 97,87 %
04.02.2026 21:52 4,1 °C 3,3 °C -0,6 °C 90 % 995,0 hPa 0,0 l/m² 0 min 0 min 0 W/m² 9,7 km/h (2 Bft) 93,62 %
04.02.2026 21:54 4,1 °C 3,3 °C -0,6 °C 90 % 995,0 hPa 0,0 l/m² 0 min 0 min 0 W/m² 9,7 km/h (2 Bft) 100,00 %
04.02.2026 21:56 4,1 °C 3,3 °C -0,6 °C 90 % 995,0 hPa 0,0 l/m² 0 min 0 min 0 W/m² 9,7 km/h (2 Bft) 97,83 %
04.02.2026 21:58 4,0 °C 2,8 °C -0,6 °C 90 % 995,0 hPa 0,0 l/m² 0 min 0 min 0 W/m² 12,9 km/h (3 Bft) 100,00 %
04.02.2026 22:00 3,9 °C 2,8 °C -0,6 °C 90 % 995,0 hPa 0,0 l/m² 0 min 0 min 0 W/m² 12,9 km/h (3 Bft) 100,00 %
04.02.2026 22:02 3,9 °C 2,8 °C -0,6 °C 90 % 995,0 hPa 0,0 l/m² 0 min 0 min 0 W/m² 9,7 km/h (2 Bft) 95,74 %
04.02.2026 22:04 3,8 °C 2,8 °C -0,6 °C 90 % 994,9 hPa 0,0 l/m² 0 min 0 min 0 W/m² 12,9 km/h (3 Bft) 100,00 %
04.02.2026 22:06 3,8 °C 2,8 °C -0,6 °C 90 % 994,9 hPa 0,0 l/m² 0 min 0 min 0 W/m² 12,9 km/h (3 Bft) 98,28 %
04.02.2026 22:08 3,8 °C 2,8 °C -0,6 °C 90 % 994,9 hPa 0,0 l/m² 0 min 0 min 0 W/m² 9,7 km/h (2 Bft) 95,74 %
04.02.2026 22:10 3,7 °C 2,8 °C -0,6 °C 90 % 994,8 hPa 0,0 l/m² 0 min 0 min 0 W/m² 12,9 km/h (3 Bft) 97,14 %
04.02.2026 22:12 3,7 °C 2,8 °C -1,1 °C 90 % 994,8 hPa 0,0 l/m² 0 min 0 min 0 W/m² 12,9 km/h (3 Bft) 97,87 %
04.02.2026 22:14 3,6 °C 2,8 °C -1,1 °C 90 % 994,8 hPa 0,0 l/m² 0 min 0 min 0 W/m² 12,9 km/h (3 Bft) 97,87 %
04.02.2026 22:16 3,6 °C 2,8 °C -1,1 °C 90 % 994,8 hPa 0,0 l/m² 0 min 0 min 0 W/m² 9,7 km/h (2 Bft) 95,74 %
04.02.2026 22:18 3,6 °C 2,2 °C -1,1 °C 90 % 994,8 hPa 0,0 l/m² 0 min 0 min 0 W/m² 9,7 km/h (2 Bft) 95,65 %
04.02.2026 22:20 3,5 °C 2,2 °C -1,1 °C 90 % 994,8 hPa 0,0 l/m² 0 min 0 min 0 W/m² 9,7 km/h (2 Bft) 93,62 %
04.02.2026 22:22 3,4 °C 2,2 °C -1,1 °C 90 % 994,8 hPa 0,0 l/m² 0 min 0 min 0 W/m² 9,7 km/h (2 Bft) 95,74 %
04.02.2026 22:24 3,4 °C 2,2 °C -1,1 °C 90 % 994,8 hPa 0,0 l/m² 0 min 0 min 0 W/m² 9,7 km/h (2 Bft) 95,74 %
04.02.2026 22:26 3,3 °C 2,2 °C -1,1 °C 91 % 994,8 hPa 0,0 l/m² 0 min 0 min 0 W/m² 9,7 km/h (2 Bft) 95,74 %
04.02.2026 22:28 3,3 °C 2,2 °C -1,1 °C 91 % 994,8 hPa 0,0 l/m² 0 min 0 min 0 W/m² 9,7 km/h (2 Bft) 93,62 %
04.02.2026 22:30 3,3 °C 2,2 °C -1,1 °C 91 % 994,8 hPa 0,0 l/m² 0 min 0 min 0 W/m² 9,7 km/h (2 Bft) 95,65 %
04.02.2026 22:32 3,2 °C 2,2 °C -1,1 °C 91 % 994,8 hPa 0,0 l/m² 0 min 0 min 0 W/m² 12,9 km/h (3 Bft) 95,74 %
04.02.2026 22:34 3,2 °C 2,2 °C -1,1 °C 91 % 994,8 hPa 0,0 l/m² 0 min 0 min 0 W/m² 9,7 km/h (2 Bft) 95,74 %
04.02.2026 22:36 3,2 °C 2,2 °C -1,1 °C 91 % 994,8 hPa 0,0 l/m² 0 min 0 min 0 W/m² 9,7 km/h (2 Bft) 97,87 %
04.02.2026 22:38 3,1 °C 2,2 °C -1,1 °C 91 % 994,8 hPa 0,0 l/m² 0 min 0 min 0 W/m² 12,9 km/h (3 Bft) 93,62 %
04.02.2026 22:40 3,1 °C 2,2 °C -1,7 °C 91 % 994,8 hPa 0,0 l/m² 0 min 0 min 0 W/m² 9,7 km/h (2 Bft) 97,87 %
04.02.2026 22:42 3,0 °C 1,7 °C -1,7 °C 91 % 994,7 hPa 0,0 l/m² 0 min 0 min 0 W/m² 9,7 km/h (2 Bft) 97,83 %
04.02.2026 22:44 2,9 °C 1,7 °C -1,7 °C 91 % 994,6 hPa 0,0 l/m² 0 min 0 min 0 W/m² 9,7 km/h (2 Bft) 97,87 %
04.02.2026 22:46 2,9 °C 1,7 °C -1,7 °C 91 % 994,7 hPa 0,0 l/m² 0 min 0 min 0 W/m² 9,7 km/h (2 Bft) 95,74 %
04.02.2026 22:48 2,9 °C 1,7 °C -1,7 °C 91 % 994,6 hPa 0,0 l/m² 0 min 0 min 0 W/m² 9,7 km/h (2 Bft) 97,87 %
04.02.2026 22:50 2,8 °C 1,7 °C -1,7 °C 91 % 994,6 hPa 0,0 l/m² 0 min 0 min 0 W/m² 12,9 km/h (3 Bft) 97,87 %
04.02.2026 22:52 2,8 °C 1,7 °C -1,7 °C 91 % 994,6 hPa 0,0 l/m² 0 min 0 min 0 W/m² 16,1 km/h (3 Bft) 97,87 %
04.02.2026 22:54 2,8 °C 1,7 °C -1,7 °C 91 % 994,6 hPa 0,0 l/m² 0 min 0 min 0 W/m² 0,0 km/h (0 Bft) 13,04 %
04.02.2026 22:56 2,7 °C 1,7 °C -1,7 °C 91 % 994,7 hPa 0,0 l/m² 0 min 0 min 0 W/m² 6,4 km/h (2 Bft) 100,00 %
04.02.2026 22:58 2,7 °C 1,7 °C -1,7 °C 91 % 994,8 hPa 0,0 l/m² 0 min 0 min 0 W/m² 9,7 km/h (2 Bft) 100,00 %
04.02.2026 23:00 2,6 °C 1,7 °C -1,7 °C 91 % 994,7 hPa 0,0 l/m² 0 min 0 min 0 W/m² 9,7 km/h (2 Bft) 100,00 %
04.02.2026 23:02 2,6 °C 1,7 °C -1,7 °C 92 % 994,7 hPa 0,0 l/m² 0 min 0 min 0 W/m² 12,9 km/h (3 Bft) 100,00 %
04.02.2026 23:04 2,6 °C 1,7 °C -1,7 °C 92 % 994,8 hPa 0,0 l/m² 0 min 0 min 0 W/m² 6,4 km/h (2 Bft) 100,00 %
04.02.2026 23:06 2,5 °C 1,1 °C -1,7 °C 92 % 994,8 hPa 0,0 l/m² 0 min 0 min 0 W/m² 6,4 km/h (2 Bft) 100,00 %
04.02.2026 23:08 2,4 °C 1,1 °C -2,2 °C 92 % 994,8 hPa 0,0 l/m² 0 min 0 min 0 W/m² 9,7 km/h (2 Bft) 100,00 %
04.02.2026 23:10 2,4 °C 1,1 °C -2,2 °C 92 % 994,7 hPa 0,0 l/m² 0 min 0 min 0 W/m² 12,9 km/h (3 Bft) 97,87 %
04.02.2026 23:12 2,4 °C 1,1 °C -2,2 °C 92 % 994,7 hPa 0,0 l/m² 0 min 0 min 0 W/m² 6,4 km/h (2 Bft) 100,00 %
04.02.2026 23:14 2,3 °C 1,1 °C -2,2 °C 92 % 994,8 hPa 0,0 l/m² 0 min 0 min 0 W/m² 6,4 km/h (2 Bft) 97,87 %
04.02.2026 23:16 2,3 °C 1,1 °C -2,2 °C 92 % 994,8 hPa 0,0 l/m² 0 min 0 min 0 W/m² 6,4 km/h (2 Bft) 100,00 %
04.02.2026 23:18 2,3 °C 1,1 °C -2,2 °C 92 % 994,7 hPa 0,0 l/m² 0 min 0 min 0 W/m² 6,4 km/h (2 Bft) 100,00 %
04.02.2026 23:20 2,2 °C 1,1 °C -2,2 °C 92 % 994,7 hPa 0,0 l/m² 0 min 0 min 0 W/m² 6,4 km/h (2 Bft) 100,00 %
04.02.2026 23:22 2,2 °C 1,1 °C -2,2 °C 92 % 994,8 hPa 0,0 l/m² 0 min 0 min 0 W/m² 6,4 km/h (2 Bft) 100,00 %
04.02.2026 23:24 2,2 °C 1,1 °C -2,2 °C 92 % 994,7 hPa 0,0 l/m² 0 min 0 min 0 W/m² 6,4 km/h (2 Bft) 97,87 %
04.02.2026 23:26 2,1 °C 1,1 °C -2,2 °C 92 % 994,7 hPa 0,0 l/m² 0 min 0 min 0 W/m² 12,9 km/h (3 Bft) 100,00 %
04.02.2026 23:28 2,1 °C 1,1 °C -2,2 °C 92 % 994,6 hPa 0,0 l/m² 0 min 0 min 0 W/m² 3,2 km/h (1 Bft) 100,00 %
04.02.2026 23:30 2,1 °C 1,1 °C -2,2 °C 92 % 994,7 hPa 0,0 l/m² 0 min 0 min 0 W/m² 9,7 km/h (2 Bft) 100,00 %
04.02.2026 23:32 2,1 °C 1,1 °C -2,2 °C 92 % 994,6 hPa 0,0 l/m² 0 min 0 min 0 W/m² 12,9 km/h (3 Bft) 100,00 %
04.02.2026 23:34 2,0 °C 1,1 °C -2,2 °C 92 % 994,6 hPa 0,0 l/m² 0 min 0 min 0 W/m² 9,7 km/h (2 Bft) 97,87 %
04.02.2026 23:36 2,0 °C 1,1 °C -2,2 °C 92 % 994,6 hPa 0,0 l/m² 0 min 0 min 0 W/m² 16,1 km/h (3 Bft) 100,00 %
04.02.2026 23:38 2,0 °C 1,1 °C -2,2 °C 92 % 994,6 hPa 0,0 l/m² 0 min 0 min 0 W/m² 9,7 km/h (2 Bft) 100,00 %
04.02.2026 23:40 1,9 °C 1,1 °C -2,2 °C 92 % 994,5 hPa 0,0 l/m² 0 min 0 min 0 W/m² 9,7 km/h (2 Bft) 100,00 %
04.02.2026 23:42 1,9 °C 1,1 °C -2,2 °C 92 % 994,6 hPa 0,0 l/m² 0 min 0 min 0 W/m² 12,9 km/h (3 Bft) 100,00 %
04.02.2026 23:44 1,9 °C 1,1 °C -2,2 °C 92 % 994,6 hPa 0,0 l/m² 0 min 0 min 0 W/m² 9,7 km/h (2 Bft) 100,00 %
04.02.2026 23:46 1,9 °C 1,1 °C -2,2 °C 92 % 994,6 hPa 0,0 l/m² 0 min 0 min 0 W/m² 12,9 km/h (3 Bft) 100,00 %
04.02.2026 23:48 1,8 °C 1,1 °C -2,2 °C 93 % 994,6 hPa 0,0 l/m² 0 min 0 min 0 W/m² 9,7 km/h (2 Bft) 100,00 %
04.02.2026 23:50 1,8 °C 1,1 °C -2,2 °C 93 % 994,6 hPa 0,0 l/m² 0 min 0 min 0 W/m² 9,7 km/h (2 Bft) 100,00 %
04.02.2026 23:52 1,8 °C 0,6 °C -2,2 °C 93 % 994,6 hPa 0,0 l/m² 0 min 0 min 0 W/m² 9,7 km/h (2 Bft) 100,00 %
04.02.2026 23:54 1,8 °C 1,1 °C -2,2 °C 93 % 994,6 hPa 0,0 l/m² 0 min 0 min 0 W/m² 12,9 km/h (3 Bft) 97,87 %
04.02.2026 23:56 1,8 °C 0,6 °C -2,2 °C 93 % 994,6 hPa 0,0 l/m² 0 min 0 min 0 W/m² 9,7 km/h (2 Bft) 97,87 %
04.02.2026 23:58 1,8 °C 1,1 °C -2,2 °C 93 % 994,6 hPa 0,0 l/m² 0 min 0 min 0 W/m² 9,7 km/h (2 Bft) 95,74 %
_ Min-Zeit 23:48 23:52 23:08 14:56 23:40 - - - - 18:30 22:54
Minimum _ 1,8 °C 0,6 °C -2,2 °C 72 % 994,5 hPa - - - - 0,0 km/h (0 Bft) 13,04 %
_ Max-Zeit 14:44 13:30 14:18 08:20 00:26 00:00 11:13 00:00 13:00 08:18 01:16
Maximum _ 11,3 °C 18,9 °C 5,6 °C 98 % 999,8 hPa 0,0 l/m² 5 min 0 min 399 W/m² 29,0 km/h
S-SW (5 Bft)
100,00 %
Durchschnitt _ 5,4 °C 5,9 °C 0,9 °C 90 % 997,9 hPa #0,0 l/m² #5:00 h #0 min. 188 W/m² 12,6 km/h (3 Bft) 97,34 %
© 2026 W. Hausmann